<?xml version="1.0" encoding="UTF-8" standalone="no" ?>
<gpx xmlns="http://www.topografix.com/GPX/1/1" xmlns:xsi="http://www.w3.org/2001/XMLSchema-instance" xsi:schemaLocation="http://www.topografix.com/GPX/1/1 http://www.topografix.com/GPX/1/1/gpx.xsd" version="1.1" creator="VisuGPX - https://www.visugpx.com">
  <metadata>
    <name>01-Le Puy en Velay_St Privat d'Allier</name>
  </metadata>
  <trk>
    <name><![CDATA[01-Le Puy en Velay_St Privat d'Allier]]></name>
    <trkseg>
      <trkpt lat="45.04558" lon="3.88379">
        <ele>670</ele>
        <time>2021-03-13T18:59:55+01:00</time>
      </trkpt>
      <trkpt lat="45.04556" lon="3.88379">
        <ele>670</ele>
        <time>2021-03-13T19:00:00+01:00</time>
      </trkpt>
      <trkpt lat="45.04552" lon="3.88318">
        <ele>659</ele>
        <time>2021-03-13T19:00:05+01:00</time>
      </trkpt>
      <trkpt lat="45.04547" lon="3.8829">
        <ele>655</ele>
        <time>2021-03-13T19:00:10+01:00</time>
      </trkpt>
      <trkpt lat="45.04548" lon="3.88289">
        <ele>655</ele>
        <time>2021-03-13T19:00:15+01:00</time>
      </trkpt>
      <trkpt lat="45.04549" lon="3.88287">
        <ele>655</ele>
        <time>2021-03-13T19:00:20+01:00</time>
      </trkpt>
      <trkpt lat="45.04549" lon="3.88282">
        <ele>655</ele>
        <time>2021-03-13T19:00:25+01:00</time>
      </trkpt>
      <trkpt lat="45.04547" lon="3.88278">
        <ele>654</ele>
        <time>2021-03-13T19:00:30+01:00</time>
      </trkpt>
      <trkpt lat="45.04545" lon="3.88277">
        <ele>654</ele>
        <time>2021-03-13T19:00:35+01:00</time>
      </trkpt>
      <trkpt lat="45.04544" lon="3.88277">
        <ele>654</ele>
        <time>2021-03-13T19:00:40+01:00</time>
      </trkpt>
      <trkpt lat="45.04542" lon="3.88265">
        <ele>652</ele>
        <time>2021-03-13T19:00:45+01:00</time>
      </trkpt>
      <trkpt lat="45.04537" lon="3.88252">
        <ele>651</ele>
        <time>2021-03-13T19:00:50+01:00</time>
      </trkpt>
      <trkpt lat="45.04525" lon="3.88253">
        <ele>650</ele>
        <time>2021-03-13T19:00:55+01:00</time>
      </trkpt>
      <trkpt lat="45.04489" lon="3.88262">
        <ele>650</ele>
        <time>2021-03-13T19:01:00+01:00</time>
      </trkpt>
      <trkpt lat="45.04474" lon="3.8827">
        <ele>650</ele>
        <time>2021-03-13T19:01:05+01:00</time>
      </trkpt>
      <trkpt lat="45.04468" lon="3.88271">
        <ele>650</ele>
        <time>2021-03-13T19:01:10+01:00</time>
      </trkpt>
      <trkpt lat="45.04459" lon="3.88269">
        <ele>650</ele>
        <time>2021-03-13T19:01:15+01:00</time>
      </trkpt>
      <trkpt lat="45.04438" lon="3.88274">
        <ele>649</ele>
        <time>2021-03-13T19:01:20+01:00</time>
      </trkpt>
      <trkpt lat="45.04438" lon="3.88274">
        <ele>649</ele>
        <time>2021-03-13T19:01:25+01:00</time>
      </trkpt>
      <trkpt lat="45.04395" lon="3.88288">
        <ele>647</ele>
        <time>2021-03-13T19:01:30+01:00</time>
      </trkpt>
      <trkpt lat="45.04349" lon="3.88259">
        <ele>644</ele>
        <time>2021-03-13T19:01:35+01:00</time>
      </trkpt>
      <trkpt lat="45.04331" lon="3.88252">
        <ele>643</ele>
        <time>2021-03-13T19:01:40+01:00</time>
      </trkpt>
      <trkpt lat="45.04321" lon="3.88243">
        <ele>642</ele>
        <time>2021-03-13T19:01:45+01:00</time>
      </trkpt>
      <trkpt lat="45.04318" lon="3.88219">
        <ele>642</ele>
        <time>2021-03-13T19:01:50+01:00</time>
      </trkpt>
      <trkpt lat="45.04311" lon="3.88173">
        <ele>642</ele>
        <time>2021-03-13T19:01:55+01:00</time>
      </trkpt>
      <trkpt lat="45.04311" lon="3.88173">
        <ele>642</ele>
        <time>2021-03-13T19:02:00+01:00</time>
      </trkpt>
      <trkpt lat="45.04302" lon="3.88109">
        <ele>642</ele>
        <time>2021-03-13T19:02:05+01:00</time>
      </trkpt>
      <trkpt lat="45.04296" lon="3.88044">
        <ele>644</ele>
        <time>2021-03-13T19:02:10+01:00</time>
      </trkpt>
      <trkpt lat="45.04283" lon="3.87959">
        <ele>648</ele>
        <time>2021-03-13T19:02:15+01:00</time>
      </trkpt>
      <trkpt lat="45.0427" lon="3.87907">
        <ele>651</ele>
        <time>2021-03-13T19:02:20+01:00</time>
      </trkpt>
      <trkpt lat="45.04262" lon="3.87878">
        <ele>654</ele>
        <time>2021-03-13T19:02:25+01:00</time>
      </trkpt>
      <trkpt lat="45.04245" lon="3.87832">
        <ele>657</ele>
        <time>2021-03-13T19:02:30+01:00</time>
      </trkpt>
      <trkpt lat="45.04207" lon="3.87747">
        <ele>665</ele>
        <time>2021-03-13T19:02:35+01:00</time>
      </trkpt>
      <trkpt lat="45.04182" lon="3.87693">
        <ele>670</ele>
        <time>2021-03-13T19:02:40+01:00</time>
      </trkpt>
      <trkpt lat="45.04166" lon="3.87662">
        <ele>673</ele>
        <time>2021-03-13T19:02:45+01:00</time>
      </trkpt>
      <trkpt lat="45.04133" lon="3.87615">
        <ele>681</ele>
        <time>2021-03-13T19:02:50+01:00</time>
      </trkpt>
      <trkpt lat="45.04131" lon="3.87609">
        <ele>682</ele>
        <time>2021-03-13T19:02:55+01:00</time>
      </trkpt>
      <trkpt lat="45.04133" lon="3.87606">
        <ele>682</ele>
        <time>2021-03-13T19:03:00+01:00</time>
      </trkpt>
      <trkpt lat="45.04175" lon="3.8758">
        <ele>683</ele>
        <time>2021-03-13T19:03:05+01:00</time>
      </trkpt>
      <trkpt lat="45.04181" lon="3.87576">
        <ele>684</ele>
        <time>2021-03-13T19:03:10+01:00</time>
      </trkpt>
      <trkpt lat="45.04182" lon="3.8757">
        <ele>685</ele>
        <time>2021-03-13T19:03:15+01:00</time>
      </trkpt>
      <trkpt lat="45.04181" lon="3.87555">
        <ele>687</ele>
        <time>2021-03-13T19:03:20+01:00</time>
      </trkpt>
      <trkpt lat="45.04181" lon="3.87555">
        <ele>687</ele>
        <time>2021-03-13T19:03:25+01:00</time>
      </trkpt>
      <trkpt lat="45.04166" lon="3.87471">
        <ele>695</ele>
        <time>2021-03-13T19:03:30+01:00</time>
      </trkpt>
      <trkpt lat="45.04151" lon="3.87436">
        <ele>700</ele>
        <time>2021-03-13T19:03:35+01:00</time>
      </trkpt>
      <trkpt lat="45.04127" lon="3.87384">
        <ele>705</ele>
        <time>2021-03-13T19:03:40+01:00</time>
      </trkpt>
      <trkpt lat="45.04103" lon="3.87326">
        <ele>709</ele>
        <time>2021-03-13T19:03:45+01:00</time>
      </trkpt>
      <trkpt lat="45.04093" lon="3.87311">
        <ele>710</ele>
        <time>2021-03-13T19:03:50+01:00</time>
      </trkpt>
      <trkpt lat="45.04087" lon="3.8731">
        <ele>711</ele>
        <time>2021-03-13T19:03:55+01:00</time>
      </trkpt>
      <trkpt lat="45.04082" lon="3.87312">
        <ele>712</ele>
        <time>2021-03-13T19:04:00+01:00</time>
      </trkpt>
      <trkpt lat="45.04069" lon="3.87301">
        <ele>715</ele>
        <time>2021-03-13T19:04:05+01:00</time>
      </trkpt>
      <trkpt lat="45.04061" lon="3.87294">
        <ele>717</ele>
        <time>2021-03-13T19:04:10+01:00</time>
      </trkpt>
      <trkpt lat="45.04054" lon="3.87291">
        <ele>718</ele>
        <time>2021-03-13T19:04:15+01:00</time>
      </trkpt>
      <trkpt lat="45.04046" lon="3.87298">
        <ele>721</ele>
        <time>2021-03-13T19:04:20+01:00</time>
      </trkpt>
      <trkpt lat="45.04034" lon="3.87313">
        <ele>725</ele>
        <time>2021-03-13T19:04:25+01:00</time>
      </trkpt>
      <trkpt lat="45.04019" lon="3.87329">
        <ele>729</ele>
        <time>2021-03-13T19:04:30+01:00</time>
      </trkpt>
      <trkpt lat="45.04012" lon="3.87339">
        <ele>731</ele>
        <time>2021-03-13T19:04:35+01:00</time>
      </trkpt>
      <trkpt lat="45.04002" lon="3.87299">
        <ele>732</ele>
        <time>2021-03-13T19:04:40+01:00</time>
      </trkpt>
      <trkpt lat="45.03992" lon="3.87277">
        <ele>733</ele>
        <time>2021-03-13T19:04:45+01:00</time>
      </trkpt>
      <trkpt lat="45.03978" lon="3.87259">
        <ele>735</ele>
        <time>2021-03-13T19:04:50+01:00</time>
      </trkpt>
      <trkpt lat="45.03961" lon="3.87244">
        <ele>738</ele>
        <time>2021-03-13T19:04:55+01:00</time>
      </trkpt>
      <trkpt lat="45.03961" lon="3.87244">
        <ele>738</ele>
        <time>2021-03-13T19:05:00+01:00</time>
      </trkpt>
      <trkpt lat="45.03933" lon="3.87231">
        <ele>742</ele>
        <time>2021-03-13T19:05:05+01:00</time>
      </trkpt>
      <trkpt lat="45.03893" lon="3.87218">
        <ele>748</ele>
        <time>2021-03-13T19:05:10+01:00</time>
      </trkpt>
      <trkpt lat="45.03857" lon="3.87216">
        <ele>754</ele>
        <time>2021-03-13T19:05:15+01:00</time>
      </trkpt>
      <trkpt lat="45.0384" lon="3.8721">
        <ele>757</ele>
        <time>2021-03-13T19:05:20+01:00</time>
      </trkpt>
      <trkpt lat="45.03814" lon="3.87174">
        <ele>759</ele>
        <time>2021-03-13T19:05:25+01:00</time>
      </trkpt>
      <trkpt lat="45.03773" lon="3.87102">
        <ele>764</ele>
        <time>2021-03-13T19:05:30+01:00</time>
      </trkpt>
      <trkpt lat="45.03759" lon="3.8707">
        <ele>765</ele>
        <time>2021-03-13T19:05:35+01:00</time>
      </trkpt>
      <trkpt lat="45.0375" lon="3.87038">
        <ele>766</ele>
        <time>2021-03-13T19:05:40+01:00</time>
      </trkpt>
      <trkpt lat="45.0373" lon="3.87008">
        <ele>767</ele>
        <time>2021-03-13T19:05:45+01:00</time>
      </trkpt>
      <trkpt lat="45.03709" lon="3.86981">
        <ele>767</ele>
        <time>2021-03-13T19:05:50+01:00</time>
      </trkpt>
      <trkpt lat="45.03683" lon="3.86953">
        <ele>767</ele>
        <time>2021-03-13T19:05:55+01:00</time>
      </trkpt>
      <trkpt lat="45.03636" lon="3.86916">
        <ele>767</ele>
        <time>2021-03-13T19:06:00+01:00</time>
      </trkpt>
      <trkpt lat="45.03597" lon="3.86885">
        <ele>765</ele>
        <time>2021-03-13T19:06:05+01:00</time>
      </trkpt>
      <trkpt lat="45.03553" lon="3.86846">
        <ele>764</ele>
        <time>2021-03-13T19:06:10+01:00</time>
      </trkpt>
      <trkpt lat="45.03547" lon="3.86841">
        <ele>764</ele>
        <time>2021-03-13T19:06:15+01:00</time>
      </trkpt>
      <trkpt lat="45.03547" lon="3.86841">
        <ele>764</ele>
        <time>2021-03-13T19:06:20+01:00</time>
      </trkpt>
      <trkpt lat="45.03504" lon="3.86804">
        <ele>763</ele>
        <time>2021-03-13T19:06:25+01:00</time>
      </trkpt>
      <trkpt lat="45.03462" lon="3.86771">
        <ele>762</ele>
        <time>2021-03-13T19:06:30+01:00</time>
      </trkpt>
      <trkpt lat="45.0337" lon="3.86716">
        <ele>759</ele>
        <time>2021-03-13T19:06:35+01:00</time>
      </trkpt>
      <trkpt lat="45.03322" lon="3.86692">
        <ele>757</ele>
        <time>2021-03-13T19:06:40+01:00</time>
      </trkpt>
      <trkpt lat="45.03282" lon="3.86674">
        <ele>757</ele>
        <time>2021-03-13T19:06:45+01:00</time>
      </trkpt>
      <trkpt lat="45.03259" lon="3.86664">
        <ele>757</ele>
        <time>2021-03-13T19:06:50+01:00</time>
      </trkpt>
      <trkpt lat="45.03246" lon="3.8665">
        <ele>757</ele>
        <time>2021-03-13T19:06:55+01:00</time>
      </trkpt>
      <trkpt lat="45.03214" lon="3.86591">
        <ele>756</ele>
        <time>2021-03-13T19:07:00+01:00</time>
      </trkpt>
      <trkpt lat="45.03179" lon="3.86528">
        <ele>758</ele>
        <time>2021-03-13T19:07:05+01:00</time>
      </trkpt>
      <trkpt lat="45.03137" lon="3.86479">
        <ele>761</ele>
        <time>2021-03-13T19:07:10+01:00</time>
      </trkpt>
      <trkpt lat="45.0312" lon="3.86466">
        <ele>762</ele>
        <time>2021-03-13T19:07:15+01:00</time>
      </trkpt>
      <trkpt lat="45.03116" lon="3.86451">
        <ele>762</ele>
        <time>2021-03-13T19:07:20+01:00</time>
      </trkpt>
      <trkpt lat="45.03106" lon="3.86432">
        <ele>764</ele>
        <time>2021-03-13T19:07:25+01:00</time>
      </trkpt>
      <trkpt lat="45.03081" lon="3.86392">
        <ele>765</ele>
        <time>2021-03-13T19:07:30+01:00</time>
      </trkpt>
      <trkpt lat="45.03081" lon="3.86392">
        <ele>765</ele>
        <time>2021-03-13T19:07:35+01:00</time>
      </trkpt>
      <trkpt lat="45.03067" lon="3.86371">
        <ele>765</ele>
        <time>2021-03-13T19:07:40+01:00</time>
      </trkpt>
      <trkpt lat="45.03028" lon="3.86321">
        <ele>766</ele>
        <time>2021-03-13T19:07:45+01:00</time>
      </trkpt>
      <trkpt lat="45.03" lon="3.86266">
        <ele>769</ele>
        <time>2021-03-13T19:07:50+01:00</time>
      </trkpt>
      <trkpt lat="45.02965" lon="3.86176">
        <ele>772</ele>
        <time>2021-03-13T19:07:55+01:00</time>
      </trkpt>
      <trkpt lat="45.02926" lon="3.86081">
        <ele>776</ele>
        <time>2021-03-13T19:08:00+01:00</time>
      </trkpt>
      <trkpt lat="45.02888" lon="3.85976">
        <ele>782</ele>
        <time>2021-03-13T19:08:05+01:00</time>
      </trkpt>
      <trkpt lat="45.0286" lon="3.85895">
        <ele>787</ele>
        <time>2021-03-13T19:08:10+01:00</time>
      </trkpt>
      <trkpt lat="45.0286" lon="3.85886">
        <ele>788</ele>
        <time>2021-03-13T19:08:15+01:00</time>
      </trkpt>
      <trkpt lat="45.02863" lon="3.85875">
        <ele>789</ele>
        <time>2021-03-13T19:08:20+01:00</time>
      </trkpt>
      <trkpt lat="45.02874" lon="3.85856">
        <ele>790</ele>
        <time>2021-03-13T19:08:25+01:00</time>
      </trkpt>
      <trkpt lat="45.02874" lon="3.85847">
        <ele>790</ele>
        <time>2021-03-13T19:08:30+01:00</time>
      </trkpt>
      <trkpt lat="45.02867" lon="3.85826">
        <ele>792</ele>
        <time>2021-03-13T19:08:35+01:00</time>
      </trkpt>
      <trkpt lat="45.02834" lon="3.85743">
        <ele>798</ele>
        <time>2021-03-13T19:08:40+01:00</time>
      </trkpt>
      <trkpt lat="45.02817" lon="3.85708">
        <ele>803</ele>
        <time>2021-03-13T19:08:45+01:00</time>
      </trkpt>
      <trkpt lat="45.02778" lon="3.85661">
        <ele>808</ele>
        <time>2021-03-13T19:08:50+01:00</time>
      </trkpt>
      <trkpt lat="45.0277" lon="3.85646">
        <ele>809</ele>
        <time>2021-03-13T19:08:55+01:00</time>
      </trkpt>
      <trkpt lat="45.02764" lon="3.8563">
        <ele>811</ele>
        <time>2021-03-13T19:09:00+01:00</time>
      </trkpt>
      <trkpt lat="45.0274" lon="3.85569">
        <ele>816</ele>
        <time>2021-03-13T19:09:05+01:00</time>
      </trkpt>
      <trkpt lat="45.0274" lon="3.85569">
        <ele>816</ele>
        <time>2021-03-13T19:09:10+01:00</time>
      </trkpt>
      <trkpt lat="45.02705" lon="3.85483">
        <ele>821</ele>
        <time>2021-03-13T19:09:15+01:00</time>
      </trkpt>
      <trkpt lat="45.02677" lon="3.85405">
        <ele>825</ele>
        <time>2021-03-13T19:09:20+01:00</time>
      </trkpt>
      <trkpt lat="45.02645" lon="3.85308">
        <ele>828</ele>
        <time>2021-03-13T19:09:25+01:00</time>
      </trkpt>
      <trkpt lat="45.0261" lon="3.8521">
        <ele>834</ele>
        <time>2021-03-13T19:09:30+01:00</time>
      </trkpt>
      <trkpt lat="45.02594" lon="3.85163">
        <ele>838</ele>
        <time>2021-03-13T19:09:35+01:00</time>
      </trkpt>
      <trkpt lat="45.02569" lon="3.85098">
        <ele>842</ele>
        <time>2021-03-13T19:09:40+01:00</time>
      </trkpt>
      <trkpt lat="45.02505" lon="3.84936">
        <ele>847</ele>
        <time>2021-03-13T19:09:45+01:00</time>
      </trkpt>
      <trkpt lat="45.02318" lon="3.8449">
        <ele>850</ele>
        <time>2021-03-13T19:09:50+01:00</time>
      </trkpt>
      <trkpt lat="45.02298" lon="3.84446">
        <ele>851</ele>
        <time>2021-03-13T19:09:55+01:00</time>
      </trkpt>
      <trkpt lat="45.02266" lon="3.84367">
        <ele>854</ele>
        <time>2021-03-13T19:10:00+01:00</time>
      </trkpt>
      <trkpt lat="45.02268" lon="3.84353">
        <ele>854</ele>
        <time>2021-03-13T19:10:05+01:00</time>
      </trkpt>
      <trkpt lat="45.02273" lon="3.84343">
        <ele>855</ele>
        <time>2021-03-13T19:10:10+01:00</time>
      </trkpt>
      <trkpt lat="45.02265" lon="3.84335">
        <ele>855</ele>
        <time>2021-03-13T19:10:15+01:00</time>
      </trkpt>
      <trkpt lat="45.02267" lon="3.84327">
        <ele>855</ele>
        <time>2021-03-13T19:10:20+01:00</time>
      </trkpt>
      <trkpt lat="45.02267" lon="3.84314">
        <ele>855</ele>
        <time>2021-03-13T19:10:25+01:00</time>
      </trkpt>
      <trkpt lat="45.02255" lon="3.84256">
        <ele>857</ele>
        <time>2021-03-13T19:10:30+01:00</time>
      </trkpt>
      <trkpt lat="45.02234" lon="3.84183">
        <ele>860</ele>
        <time>2021-03-13T19:10:35+01:00</time>
      </trkpt>
      <trkpt lat="45.02227" lon="3.84158">
        <ele>860</ele>
        <time>2021-03-13T19:10:40+01:00</time>
      </trkpt>
      <trkpt lat="45.02227" lon="3.84158">
        <ele>860</ele>
        <time>2021-03-13T19:10:45+01:00</time>
      </trkpt>
      <trkpt lat="45.02215" lon="3.84112">
        <ele>860</ele>
        <time>2021-03-13T19:10:50+01:00</time>
      </trkpt>
      <trkpt lat="45.022" lon="3.84063">
        <ele>859</ele>
        <time>2021-03-13T19:10:55+01:00</time>
      </trkpt>
      <trkpt lat="45.02187" lon="3.84034">
        <ele>859</ele>
        <time>2021-03-13T19:11:00+01:00</time>
      </trkpt>
      <trkpt lat="45.02174" lon="3.83984">
        <ele>859</ele>
        <time>2021-03-13T19:11:05+01:00</time>
      </trkpt>
      <trkpt lat="45.0216" lon="3.83905">
        <ele>861</ele>
        <time>2021-03-13T19:11:10+01:00</time>
      </trkpt>
      <trkpt lat="45.02147" lon="3.83819">
        <ele>862</ele>
        <time>2021-03-13T19:11:15+01:00</time>
      </trkpt>
      <trkpt lat="45.02141" lon="3.83782">
        <ele>863</ele>
        <time>2021-03-13T19:11:20+01:00</time>
      </trkpt>
      <trkpt lat="45.02127" lon="3.8372">
        <ele>863</ele>
        <time>2021-03-13T19:11:25+01:00</time>
      </trkpt>
      <trkpt lat="45.02103" lon="3.83635">
        <ele>865</ele>
        <time>2021-03-13T19:11:30+01:00</time>
      </trkpt>
      <trkpt lat="45.02075" lon="3.836">
        <ele>865</ele>
        <time>2021-03-13T19:11:35+01:00</time>
      </trkpt>
      <trkpt lat="45.02045" lon="3.83557">
        <ele>865</ele>
        <time>2021-03-13T19:11:40+01:00</time>
      </trkpt>
      <trkpt lat="45.02032" lon="3.83531">
        <ele>865</ele>
        <time>2021-03-13T19:11:45+01:00</time>
      </trkpt>
      <trkpt lat="45.02021" lon="3.83495">
        <ele>865</ele>
        <time>2021-03-13T19:11:50+01:00</time>
      </trkpt>
      <trkpt lat="45.02014" lon="3.83456">
        <ele>866</ele>
        <time>2021-03-13T19:11:55+01:00</time>
      </trkpt>
      <trkpt lat="45.02" lon="3.8341">
        <ele>866</ele>
        <time>2021-03-13T19:12:00+01:00</time>
      </trkpt>
      <trkpt lat="45.01995" lon="3.83395">
        <ele>866</ele>
        <time>2021-03-13T19:12:05+01:00</time>
      </trkpt>
      <trkpt lat="45.01976" lon="3.83412">
        <ele>867</ele>
        <time>2021-03-13T19:12:10+01:00</time>
      </trkpt>
      <trkpt lat="45.01943" lon="3.83438">
        <ele>867</ele>
        <time>2021-03-13T19:12:15+01:00</time>
      </trkpt>
      <trkpt lat="45.0193" lon="3.83447">
        <ele>868</ele>
        <time>2021-03-13T19:12:20+01:00</time>
      </trkpt>
      <trkpt lat="45.01875" lon="3.83479">
        <ele>869</ele>
        <time>2021-03-13T19:12:25+01:00</time>
      </trkpt>
      <trkpt lat="45.01861" lon="3.83491">
        <ele>869</ele>
        <time>2021-03-13T19:12:30+01:00</time>
      </trkpt>
      <trkpt lat="45.01861" lon="3.83491">
        <ele>869</ele>
        <time>2021-03-13T19:12:35+01:00</time>
      </trkpt>
      <trkpt lat="45.0184" lon="3.83522">
        <ele>869</ele>
        <time>2021-03-13T19:12:40+01:00</time>
      </trkpt>
      <trkpt lat="45.01835" lon="3.83527">
        <ele>869</ele>
        <time>2021-03-13T19:12:45+01:00</time>
      </trkpt>
      <trkpt lat="45.01805" lon="3.83542">
        <ele>870</ele>
        <time>2021-03-13T19:12:50+01:00</time>
      </trkpt>
      <trkpt lat="45.01795" lon="3.83553">
        <ele>869</ele>
        <time>2021-03-13T19:12:55+01:00</time>
      </trkpt>
      <trkpt lat="45.01785" lon="3.83569">
        <ele>869</ele>
        <time>2021-03-13T19:13:00+01:00</time>
      </trkpt>
      <trkpt lat="45.01764" lon="3.83584">
        <ele>870</ele>
        <time>2021-03-13T19:13:05+01:00</time>
      </trkpt>
      <trkpt lat="45.01737" lon="3.83607">
        <ele>870</ele>
        <time>2021-03-13T19:13:10+01:00</time>
      </trkpt>
      <trkpt lat="45.01721" lon="3.83624">
        <ele>870</ele>
        <time>2021-03-13T19:13:15+01:00</time>
      </trkpt>
      <trkpt lat="45.01723" lon="3.83627">
        <ele>869</ele>
        <time>2021-03-13T19:13:20+01:00</time>
      </trkpt>
      <trkpt lat="45.01676" lon="3.83693">
        <ele>867</ele>
        <time>2021-03-13T19:13:25+01:00</time>
      </trkpt>
      <trkpt lat="45.01676" lon="3.83693">
        <ele>867</ele>
        <time>2021-03-13T19:13:30+01:00</time>
      </trkpt>
      <trkpt lat="45.01648" lon="3.83723">
        <ele>859</ele>
        <time>2021-03-13T19:13:35+01:00</time>
      </trkpt>
      <trkpt lat="45.01634" lon="3.83741">
        <ele>854</ele>
        <time>2021-03-13T19:13:40+01:00</time>
      </trkpt>
      <trkpt lat="45.01632" lon="3.83741">
        <ele>853</ele>
        <time>2021-03-13T19:13:45+01:00</time>
      </trkpt>
      <trkpt lat="45.01632" lon="3.83727">
        <ele>854</ele>
        <time>2021-03-13T19:13:50+01:00</time>
      </trkpt>
      <trkpt lat="45.01634" lon="3.83695">
        <ele>856</ele>
        <time>2021-03-13T19:13:55+01:00</time>
      </trkpt>
      <trkpt lat="45.01629" lon="3.8364">
        <ele>859</ele>
        <time>2021-03-13T19:14:00+01:00</time>
      </trkpt>
      <trkpt lat="45.01608" lon="3.83585">
        <ele>860</ele>
        <time>2021-03-13T19:14:05+01:00</time>
      </trkpt>
      <trkpt lat="45.01602" lon="3.83572">
        <ele>860</ele>
        <time>2021-03-13T19:14:10+01:00</time>
      </trkpt>
      <trkpt lat="45.01592" lon="3.8356">
        <ele>860</ele>
        <time>2021-03-13T19:14:15+01:00</time>
      </trkpt>
      <trkpt lat="45.01586" lon="3.83555">
        <ele>860</ele>
        <time>2021-03-13T19:14:20+01:00</time>
      </trkpt>
      <trkpt lat="45.01586" lon="3.83555">
        <ele>860</ele>
        <time>2021-03-13T19:14:25+01:00</time>
      </trkpt>
      <trkpt lat="45.01566" lon="3.83541">
        <ele>858</ele>
        <time>2021-03-13T19:14:30+01:00</time>
      </trkpt>
      <trkpt lat="45.01546" lon="3.83525">
        <ele>856</ele>
        <time>2021-03-13T19:14:35+01:00</time>
      </trkpt>
      <trkpt lat="45.01535" lon="3.83512">
        <ele>856</ele>
        <time>2021-03-13T19:14:40+01:00</time>
      </trkpt>
      <trkpt lat="45.01515" lon="3.83486">
        <ele>853</ele>
        <time>2021-03-13T19:14:45+01:00</time>
      </trkpt>
      <trkpt lat="45.01515" lon="3.83477">
        <ele>852</ele>
        <time>2021-03-13T19:14:50+01:00</time>
      </trkpt>
      <trkpt lat="45.01517" lon="3.83469">
        <ele>853</ele>
        <time>2021-03-13T19:14:55+01:00</time>
      </trkpt>
      <trkpt lat="45.01531" lon="3.8344">
        <ele>855</ele>
        <time>2021-03-13T19:15:00+01:00</time>
      </trkpt>
      <trkpt lat="45.01537" lon="3.83414">
        <ele>857</ele>
        <time>2021-03-13T19:15:05+01:00</time>
      </trkpt>
      <trkpt lat="45.01539" lon="3.83409">
        <ele>857</ele>
        <time>2021-03-13T19:15:10+01:00</time>
      </trkpt>
      <trkpt lat="45.01543" lon="3.83407">
        <ele>859</ele>
        <time>2021-03-13T19:15:15+01:00</time>
      </trkpt>
      <trkpt lat="45.01545" lon="3.83402">
        <ele>860</ele>
        <time>2021-03-13T19:15:20+01:00</time>
      </trkpt>
      <trkpt lat="45.01547" lon="3.83392">
        <ele>861</ele>
        <time>2021-03-13T19:15:25+01:00</time>
      </trkpt>
      <trkpt lat="45.01547" lon="3.83392">
        <ele>861</ele>
        <time>2021-03-13T19:15:30+01:00</time>
      </trkpt>
      <trkpt lat="45.01554" lon="3.83364">
        <ele>864</ele>
        <time>2021-03-13T19:15:35+01:00</time>
      </trkpt>
      <trkpt lat="45.01557" lon="3.83359">
        <ele>865</ele>
        <time>2021-03-13T19:15:40+01:00</time>
      </trkpt>
      <trkpt lat="45.01534" lon="3.83311">
        <ele>862</ele>
        <time>2021-03-13T19:15:45+01:00</time>
      </trkpt>
      <trkpt lat="45.01527" lon="3.83285">
        <ele>864</ele>
        <time>2021-03-13T19:15:50+01:00</time>
      </trkpt>
      <trkpt lat="45.01506" lon="3.83237">
        <ele>867</ele>
        <time>2021-03-13T19:15:55+01:00</time>
      </trkpt>
      <trkpt lat="45.01492" lon="3.83218">
        <ele>868</ele>
        <time>2021-03-13T19:16:00+01:00</time>
      </trkpt>
      <trkpt lat="45.01482" lon="3.83207">
        <ele>869</ele>
        <time>2021-03-13T19:16:05+01:00</time>
      </trkpt>
      <trkpt lat="45.01467" lon="3.83189">
        <ele>870</ele>
        <time>2021-03-13T19:16:10+01:00</time>
      </trkpt>
      <trkpt lat="45.0146" lon="3.83182">
        <ele>870</ele>
        <time>2021-03-13T19:16:15+01:00</time>
      </trkpt>
      <trkpt lat="45.01449" lon="3.83179">
        <ele>870</ele>
        <time>2021-03-13T19:16:20+01:00</time>
      </trkpt>
      <trkpt lat="45.01449" lon="3.83178">
        <ele>870</ele>
        <time>2021-03-13T19:16:25+01:00</time>
      </trkpt>
      <trkpt lat="45.01424" lon="3.83168">
        <ele>869</ele>
        <time>2021-03-13T19:16:30+01:00</time>
      </trkpt>
      <trkpt lat="45.01401" lon="3.83166">
        <ele>868</ele>
        <time>2021-03-13T19:16:35+01:00</time>
      </trkpt>
      <trkpt lat="45.01374" lon="3.8316">
        <ele>866</ele>
        <time>2021-03-13T19:16:40+01:00</time>
      </trkpt>
      <trkpt lat="45.01367" lon="3.83158">
        <ele>865</ele>
        <time>2021-03-13T19:16:45+01:00</time>
      </trkpt>
      <trkpt lat="45.01362" lon="3.83154">
        <ele>865</ele>
        <time>2021-03-13T19:16:50+01:00</time>
      </trkpt>
      <trkpt lat="45.01352" lon="3.83138">
        <ele>866</ele>
        <time>2021-03-13T19:16:55+01:00</time>
      </trkpt>
      <trkpt lat="45.01348" lon="3.83123">
        <ele>868</ele>
        <time>2021-03-13T19:17:00+01:00</time>
      </trkpt>
      <trkpt lat="45.01341" lon="3.83107">
        <ele>869</ele>
        <time>2021-03-13T19:17:05+01:00</time>
      </trkpt>
      <trkpt lat="45.01335" lon="3.83086">
        <ele>871</ele>
        <time>2021-03-13T19:17:10+01:00</time>
      </trkpt>
      <trkpt lat="45.01328" lon="3.83073">
        <ele>869</ele>
        <time>2021-03-13T19:17:15+01:00</time>
      </trkpt>
      <trkpt lat="45.01325" lon="3.83059">
        <ele>868</ele>
        <time>2021-03-13T19:17:20+01:00</time>
      </trkpt>
      <trkpt lat="45.01324" lon="3.83017">
        <ele>867</ele>
        <time>2021-03-13T19:17:25+01:00</time>
      </trkpt>
      <trkpt lat="45.01327" lon="3.82989">
        <ele>868</ele>
        <time>2021-03-13T19:17:30+01:00</time>
      </trkpt>
      <trkpt lat="45.01326" lon="3.8293">
        <ele>869</ele>
        <time>2021-03-13T19:17:35+01:00</time>
      </trkpt>
      <trkpt lat="45.0133" lon="3.82903">
        <ele>871</ele>
        <time>2021-03-13T19:17:40+01:00</time>
      </trkpt>
      <trkpt lat="45.01318" lon="3.82842">
        <ele>871</ele>
        <time>2021-03-13T19:17:45+01:00</time>
      </trkpt>
      <trkpt lat="45.01313" lon="3.8283">
        <ele>871</ele>
        <time>2021-03-13T19:17:50+01:00</time>
      </trkpt>
      <trkpt lat="45.01302" lon="3.82811">
        <ele>870</ele>
        <time>2021-03-13T19:17:55+01:00</time>
      </trkpt>
      <trkpt lat="45.01292" lon="3.82789">
        <ele>871</ele>
        <time>2021-03-13T19:18:00+01:00</time>
      </trkpt>
      <trkpt lat="45.01292" lon="3.82789">
        <ele>871</ele>
        <time>2021-03-13T19:18:05+01:00</time>
      </trkpt>
      <trkpt lat="45.01284" lon="3.82764">
        <ele>873</ele>
        <time>2021-03-13T19:18:10+01:00</time>
      </trkpt>
      <trkpt lat="45.01275" lon="3.8275">
        <ele>874</ele>
        <time>2021-03-13T19:18:15+01:00</time>
      </trkpt>
      <trkpt lat="45.01257" lon="3.82738">
        <ele>873</ele>
        <time>2021-03-13T19:18:20+01:00</time>
      </trkpt>
      <trkpt lat="45.01243" lon="3.82721">
        <ele>873</ele>
        <time>2021-03-13T19:18:25+01:00</time>
      </trkpt>
      <trkpt lat="45.01226" lon="3.82687">
        <ele>875</ele>
        <time>2021-03-13T19:18:30+01:00</time>
      </trkpt>
      <trkpt lat="45.01211" lon="3.82631">
        <ele>878</ele>
        <time>2021-03-13T19:18:35+01:00</time>
      </trkpt>
      <trkpt lat="45.01207" lon="3.82604">
        <ele>879</ele>
        <time>2021-03-13T19:18:40+01:00</time>
      </trkpt>
      <trkpt lat="45.012" lon="3.82602">
        <ele>879</ele>
        <time>2021-03-13T19:18:45+01:00</time>
      </trkpt>
      <trkpt lat="45.0118" lon="3.8259">
        <ele>879</ele>
        <time>2021-03-13T19:18:50+01:00</time>
      </trkpt>
      <trkpt lat="45.0116" lon="3.82583">
        <ele>879</ele>
        <time>2021-03-13T19:18:55+01:00</time>
      </trkpt>
      <trkpt lat="45.01119" lon="3.82571">
        <ele>878</ele>
        <time>2021-03-13T19:19:00+01:00</time>
      </trkpt>
      <trkpt lat="45.01074" lon="3.82555">
        <ele>878</ele>
        <time>2021-03-13T19:19:05+01:00</time>
      </trkpt>
      <trkpt lat="45.0106" lon="3.82551">
        <ele>877</ele>
        <time>2021-03-13T19:19:10+01:00</time>
      </trkpt>
      <trkpt lat="45.0106" lon="3.82551">
        <ele>877</ele>
        <time>2021-03-13T19:19:15+01:00</time>
      </trkpt>
      <trkpt lat="45.01028" lon="3.82552">
        <ele>874</ele>
        <time>2021-03-13T19:19:20+01:00</time>
      </trkpt>
      <trkpt lat="45.01" lon="3.82558">
        <ele>871</ele>
        <time>2021-03-13T19:19:25+01:00</time>
      </trkpt>
      <trkpt lat="45.0099" lon="3.8255">
        <ele>872</ele>
        <time>2021-03-13T19:19:30+01:00</time>
      </trkpt>
      <trkpt lat="45.00946" lon="3.82533">
        <ele>872</ele>
        <time>2021-03-13T19:19:35+01:00</time>
      </trkpt>
      <trkpt lat="45.00915" lon="3.82519">
        <ele>872</ele>
        <time>2021-03-13T19:19:40+01:00</time>
      </trkpt>
      <trkpt lat="45.00888" lon="3.82502">
        <ele>873</ele>
        <time>2021-03-13T19:19:45+01:00</time>
      </trkpt>
      <trkpt lat="45.00858" lon="3.82485">
        <ele>873</ele>
        <time>2021-03-13T19:19:50+01:00</time>
      </trkpt>
      <trkpt lat="45.00847" lon="3.82474">
        <ele>874</ele>
        <time>2021-03-13T19:19:55+01:00</time>
      </trkpt>
      <trkpt lat="45.00838" lon="3.82467">
        <ele>875</ele>
        <time>2021-03-13T19:20:00+01:00</time>
      </trkpt>
      <trkpt lat="45.00828" lon="3.82465">
        <ele>875</ele>
        <time>2021-03-13T19:20:05+01:00</time>
      </trkpt>
      <trkpt lat="45.00787" lon="3.82463">
        <ele>876</ele>
        <time>2021-03-13T19:20:10+01:00</time>
      </trkpt>
      <trkpt lat="45.00747" lon="3.82455">
        <ele>878</ele>
        <time>2021-03-13T19:20:15+01:00</time>
      </trkpt>
      <trkpt lat="45.0074" lon="3.82449">
        <ele>880</ele>
        <time>2021-03-13T19:20:20+01:00</time>
      </trkpt>
      <trkpt lat="45.00731" lon="3.82434">
        <ele>883</ele>
        <time>2021-03-13T19:20:25+01:00</time>
      </trkpt>
      <trkpt lat="45.00723" lon="3.82424">
        <ele>885</ele>
        <time>2021-03-13T19:20:30+01:00</time>
      </trkpt>
      <trkpt lat="45.0071" lon="3.82416">
        <ele>887</ele>
        <time>2021-03-13T19:20:35+01:00</time>
      </trkpt>
      <trkpt lat="45.00639" lon="3.82378">
        <ele>890</ele>
        <time>2021-03-13T19:20:40+01:00</time>
      </trkpt>
      <trkpt lat="45.00639" lon="3.82378">
        <ele>890</ele>
        <time>2021-03-13T19:20:45+01:00</time>
      </trkpt>
      <trkpt lat="45.00548" lon="3.82331">
        <ele>885</ele>
        <time>2021-03-13T19:20:50+01:00</time>
      </trkpt>
      <trkpt lat="45.00536" lon="3.82316">
        <ele>884</ele>
        <time>2021-03-13T19:20:55+01:00</time>
      </trkpt>
      <trkpt lat="45.00532" lon="3.82309">
        <ele>884</ele>
        <time>2021-03-13T19:21:00+01:00</time>
      </trkpt>
      <trkpt lat="45.00532" lon="3.82303">
        <ele>884</ele>
        <time>2021-03-13T19:21:05+01:00</time>
      </trkpt>
      <trkpt lat="45.00526" lon="3.82291">
        <ele>883</ele>
        <time>2021-03-13T19:21:10+01:00</time>
      </trkpt>
      <trkpt lat="45.00494" lon="3.82264">
        <ele>880</ele>
        <time>2021-03-13T19:21:15+01:00</time>
      </trkpt>
      <trkpt lat="45.00468" lon="3.82227">
        <ele>881</ele>
        <time>2021-03-13T19:21:20+01:00</time>
      </trkpt>
      <trkpt lat="45.00457" lon="3.82199">
        <ele>881</ele>
        <time>2021-03-13T19:21:25+01:00</time>
      </trkpt>
      <trkpt lat="45.00448" lon="3.82174">
        <ele>881</ele>
        <time>2021-03-13T19:21:30+01:00</time>
      </trkpt>
      <trkpt lat="45.00438" lon="3.82163">
        <ele>881</ele>
        <time>2021-03-13T19:21:35+01:00</time>
      </trkpt>
      <trkpt lat="45.00425" lon="3.82157">
        <ele>880</ele>
        <time>2021-03-13T19:21:40+01:00</time>
      </trkpt>
      <trkpt lat="45.00416" lon="3.82156">
        <ele>880</ele>
        <time>2021-03-13T19:21:45+01:00</time>
      </trkpt>
      <trkpt lat="45.00411" lon="3.82159">
        <ele>881</ele>
        <time>2021-03-13T19:21:50+01:00</time>
      </trkpt>
      <trkpt lat="45.00405" lon="3.82161">
        <ele>881</ele>
        <time>2021-03-13T19:21:55+01:00</time>
      </trkpt>
      <trkpt lat="45.00397" lon="3.82158">
        <ele>882</ele>
        <time>2021-03-13T19:22:00+01:00</time>
      </trkpt>
      <trkpt lat="45.00375" lon="3.82141">
        <ele>885</ele>
        <time>2021-03-13T19:22:05+01:00</time>
      </trkpt>
      <trkpt lat="45.00346" lon="3.82101">
        <ele>887</ele>
        <time>2021-03-13T19:22:10+01:00</time>
      </trkpt>
      <trkpt lat="45.00332" lon="3.82088">
        <ele>887</ele>
        <time>2021-03-13T19:22:15+01:00</time>
      </trkpt>
      <trkpt lat="45.00291" lon="3.8206">
        <ele>889</ele>
        <time>2021-03-13T19:22:20+01:00</time>
      </trkpt>
      <trkpt lat="45.00263" lon="3.82052">
        <ele>891</ele>
        <time>2021-03-13T19:22:25+01:00</time>
      </trkpt>
      <trkpt lat="45.0025" lon="3.82046">
        <ele>891</ele>
        <time>2021-03-13T19:22:30+01:00</time>
      </trkpt>
      <trkpt lat="45.00235" lon="3.82034">
        <ele>892</ele>
        <time>2021-03-13T19:22:35+01:00</time>
      </trkpt>
      <trkpt lat="45.00214" lon="3.82023">
        <ele>893</ele>
        <time>2021-03-13T19:22:40+01:00</time>
      </trkpt>
      <trkpt lat="45.00208" lon="3.82023">
        <ele>894</ele>
        <time>2021-03-13T19:22:45+01:00</time>
      </trkpt>
      <trkpt lat="45.00208" lon="3.82023">
        <ele>894</ele>
        <time>2021-03-13T19:22:50+01:00</time>
      </trkpt>
      <trkpt lat="45.00126" lon="3.82009">
        <ele>900</ele>
        <time>2021-03-13T19:22:55+01:00</time>
      </trkpt>
      <trkpt lat="45.00086" lon="3.81995">
        <ele>902</ele>
        <time>2021-03-13T19:23:00+01:00</time>
      </trkpt>
      <trkpt lat="45.00053" lon="3.81979">
        <ele>902</ele>
        <time>2021-03-13T19:23:05+01:00</time>
      </trkpt>
      <trkpt lat="45.00013" lon="3.82005">
        <ele>905</ele>
        <time>2021-03-13T19:23:10+01:00</time>
      </trkpt>
      <trkpt lat="44.99991" lon="3.82018">
        <ele>907</ele>
        <time>2021-03-13T19:23:15+01:00</time>
      </trkpt>
      <trkpt lat="44.9995" lon="3.82031">
        <ele>908</ele>
        <time>2021-03-13T19:23:20+01:00</time>
      </trkpt>
      <trkpt lat="44.99891" lon="3.82033">
        <ele>909</ele>
        <time>2021-03-13T19:23:25+01:00</time>
      </trkpt>
      <trkpt lat="44.99882" lon="3.82032">
        <ele>909</ele>
        <time>2021-03-13T19:23:30+01:00</time>
      </trkpt>
      <trkpt lat="44.99882" lon="3.82032">
        <ele>909</ele>
        <time>2021-03-13T19:23:35+01:00</time>
      </trkpt>
      <trkpt lat="44.99863" lon="3.82029">
        <ele>909</ele>
        <time>2021-03-13T19:23:40+01:00</time>
      </trkpt>
      <trkpt lat="44.99819" lon="3.82033">
        <ele>911</ele>
        <time>2021-03-13T19:23:45+01:00</time>
      </trkpt>
      <trkpt lat="44.99804" lon="3.8204">
        <ele>911</ele>
        <time>2021-03-13T19:23:50+01:00</time>
      </trkpt>
      <trkpt lat="44.99792" lon="3.82049">
        <ele>912</ele>
        <time>2021-03-13T19:23:55+01:00</time>
      </trkpt>
      <trkpt lat="44.99769" lon="3.82077">
        <ele>912</ele>
        <time>2021-03-13T19:24:00+01:00</time>
      </trkpt>
      <trkpt lat="44.99757" lon="3.8208">
        <ele>913</ele>
        <time>2021-03-13T19:24:05+01:00</time>
      </trkpt>
      <trkpt lat="44.99745" lon="3.82049">
        <ele>913</ele>
        <time>2021-03-13T19:24:10+01:00</time>
      </trkpt>
      <trkpt lat="44.99736" lon="3.82011">
        <ele>914</ele>
        <time>2021-03-13T19:24:15+01:00</time>
      </trkpt>
      <trkpt lat="44.99732" lon="3.82002">
        <ele>914</ele>
        <time>2021-03-13T19:24:20+01:00</time>
      </trkpt>
      <trkpt lat="44.99687" lon="3.8197">
        <ele>913</ele>
        <time>2021-03-13T19:24:25+01:00</time>
      </trkpt>
      <trkpt lat="44.99649" lon="3.81945">
        <ele>913</ele>
        <time>2021-03-13T19:24:30+01:00</time>
      </trkpt>
      <trkpt lat="44.99635" lon="3.81943">
        <ele>913</ele>
        <time>2021-03-13T19:24:35+01:00</time>
      </trkpt>
      <trkpt lat="44.99638" lon="3.81871">
        <ele>911</ele>
        <time>2021-03-13T19:24:40+01:00</time>
      </trkpt>
      <trkpt lat="44.99639" lon="3.81865">
        <ele>911</ele>
        <time>2021-03-13T19:24:45+01:00</time>
      </trkpt>
      <trkpt lat="44.99639" lon="3.81865">
        <ele>911</ele>
        <time>2021-03-13T19:24:50+01:00</time>
      </trkpt>
      <trkpt lat="44.99644" lon="3.81828">
        <ele>909</ele>
        <time>2021-03-13T19:24:55+01:00</time>
      </trkpt>
      <trkpt lat="44.99649" lon="3.81817">
        <ele>908</ele>
        <time>2021-03-13T19:25:00+01:00</time>
      </trkpt>
      <trkpt lat="44.99693" lon="3.81792">
        <ele>906</ele>
        <time>2021-03-13T19:25:05+01:00</time>
      </trkpt>
      <trkpt lat="44.99705" lon="3.81785">
        <ele>905</ele>
        <time>2021-03-13T19:25:10+01:00</time>
      </trkpt>
      <trkpt lat="44.99708" lon="3.8178">
        <ele>905</ele>
        <time>2021-03-13T19:25:15+01:00</time>
      </trkpt>
      <trkpt lat="44.99708" lon="3.81751">
        <ele>903</ele>
        <time>2021-03-13T19:25:20+01:00</time>
      </trkpt>
      <trkpt lat="44.99708" lon="3.81727">
        <ele>903</ele>
        <time>2021-03-13T19:25:25+01:00</time>
      </trkpt>
      <trkpt lat="44.99704" lon="3.81693">
        <ele>903</ele>
        <time>2021-03-13T19:25:30+01:00</time>
      </trkpt>
      <trkpt lat="44.99696" lon="3.81683">
        <ele>903</ele>
        <time>2021-03-13T19:25:35+01:00</time>
      </trkpt>
      <trkpt lat="44.99677" lon="3.8167">
        <ele>903</ele>
        <time>2021-03-13T19:25:40+01:00</time>
      </trkpt>
      <trkpt lat="44.99646" lon="3.81656">
        <ele>903</ele>
        <time>2021-03-13T19:25:45+01:00</time>
      </trkpt>
      <trkpt lat="44.99634" lon="3.81642">
        <ele>903</ele>
        <time>2021-03-13T19:25:50+01:00</time>
      </trkpt>
      <trkpt lat="44.99619" lon="3.81616">
        <ele>903</ele>
        <time>2021-03-13T19:25:55+01:00</time>
      </trkpt>
      <trkpt lat="44.99602" lon="3.81572">
        <ele>905</ele>
        <time>2021-03-13T19:26:00+01:00</time>
      </trkpt>
      <trkpt lat="44.99594" lon="3.81547">
        <ele>906</ele>
        <time>2021-03-13T19:26:05+01:00</time>
      </trkpt>
      <trkpt lat="44.99594" lon="3.81547">
        <ele>906</ele>
        <time>2021-03-13T19:26:10+01:00</time>
      </trkpt>
      <trkpt lat="44.9959" lon="3.81532">
        <ele>906</ele>
        <time>2021-03-13T19:26:15+01:00</time>
      </trkpt>
      <trkpt lat="44.99587" lon="3.81508">
        <ele>908</ele>
        <time>2021-03-13T19:26:20+01:00</time>
      </trkpt>
      <trkpt lat="44.99587" lon="3.81474">
        <ele>910</ele>
        <time>2021-03-13T19:26:25+01:00</time>
      </trkpt>
      <trkpt lat="44.99582" lon="3.8145">
        <ele>911</ele>
        <time>2021-03-13T19:26:30+01:00</time>
      </trkpt>
      <trkpt lat="44.99572" lon="3.8142">
        <ele>913</ele>
        <time>2021-03-13T19:26:35+01:00</time>
      </trkpt>
      <trkpt lat="44.99558" lon="3.81394">
        <ele>914</ele>
        <time>2021-03-13T19:26:40+01:00</time>
      </trkpt>
      <trkpt lat="44.99536" lon="3.81356">
        <ele>916</ele>
        <time>2021-03-13T19:26:45+01:00</time>
      </trkpt>
      <trkpt lat="44.99524" lon="3.81327">
        <ele>918</ele>
        <time>2021-03-13T19:26:50+01:00</time>
      </trkpt>
      <trkpt lat="44.99517" lon="3.81281">
        <ele>922</ele>
        <time>2021-03-13T19:26:55+01:00</time>
      </trkpt>
      <trkpt lat="44.99512" lon="3.81271">
        <ele>923</ele>
        <time>2021-03-13T19:27:00+01:00</time>
      </trkpt>
      <trkpt lat="44.99496" lon="3.81257">
        <ele>924</ele>
        <time>2021-03-13T19:27:05+01:00</time>
      </trkpt>
      <trkpt lat="44.9947" lon="3.81236">
        <ele>925</ele>
        <time>2021-03-13T19:27:10+01:00</time>
      </trkpt>
      <trkpt lat="44.99428" lon="3.81198">
        <ele>927</ele>
        <time>2021-03-13T19:27:15+01:00</time>
      </trkpt>
      <trkpt lat="44.99409" lon="3.81157">
        <ele>928</ele>
        <time>2021-03-13T19:27:20+01:00</time>
      </trkpt>
      <trkpt lat="44.99381" lon="3.81092">
        <ele>928</ele>
        <time>2021-03-13T19:27:25+01:00</time>
      </trkpt>
      <trkpt lat="44.99378" lon="3.81077">
        <ele>928</ele>
        <time>2021-03-13T19:27:30+01:00</time>
      </trkpt>
      <trkpt lat="44.99373" lon="3.81038">
        <ele>928</ele>
        <time>2021-03-13T19:27:35+01:00</time>
      </trkpt>
      <trkpt lat="44.99368" lon="3.81013">
        <ele>928</ele>
        <time>2021-03-13T19:27:40+01:00</time>
      </trkpt>
      <trkpt lat="44.99357" lon="3.80984">
        <ele>927</ele>
        <time>2021-03-13T19:27:45+01:00</time>
      </trkpt>
      <trkpt lat="44.99335" lon="3.80929">
        <ele>927</ele>
        <time>2021-03-13T19:27:50+01:00</time>
      </trkpt>
      <trkpt lat="44.99309" lon="3.80816">
        <ele>928</ele>
        <time>2021-03-13T19:27:55+01:00</time>
      </trkpt>
      <trkpt lat="44.99304" lon="3.80782">
        <ele>928</ele>
        <time>2021-03-13T19:28:00+01:00</time>
      </trkpt>
      <trkpt lat="44.993" lon="3.80684">
        <ele>929</ele>
        <time>2021-03-13T19:28:05+01:00</time>
      </trkpt>
      <trkpt lat="44.99297" lon="3.80662">
        <ele>929</ele>
        <time>2021-03-13T19:28:10+01:00</time>
      </trkpt>
      <trkpt lat="44.99291" lon="3.80651">
        <ele>929</ele>
        <time>2021-03-13T19:28:15+01:00</time>
      </trkpt>
      <trkpt lat="44.99261" lon="3.80609">
        <ele>929</ele>
        <time>2021-03-13T19:28:20+01:00</time>
      </trkpt>
      <trkpt lat="44.99254" lon="3.80596">
        <ele>929</ele>
        <time>2021-03-13T19:28:25+01:00</time>
      </trkpt>
      <trkpt lat="44.99254" lon="3.80596">
        <ele>929</ele>
        <time>2021-03-13T19:28:30+01:00</time>
      </trkpt>
      <trkpt lat="44.99235" lon="3.8056">
        <ele>929</ele>
        <time>2021-03-13T19:28:35+01:00</time>
      </trkpt>
      <trkpt lat="44.99194" lon="3.80502">
        <ele>931</ele>
        <time>2021-03-13T19:28:40+01:00</time>
      </trkpt>
      <trkpt lat="44.99167" lon="3.80463">
        <ele>931</ele>
        <time>2021-03-13T19:28:45+01:00</time>
      </trkpt>
      <trkpt lat="44.99151" lon="3.80448">
        <ele>931</ele>
        <time>2021-03-13T19:28:50+01:00</time>
      </trkpt>
      <trkpt lat="44.99112" lon="3.80421">
        <ele>932</ele>
        <time>2021-03-13T19:28:55+01:00</time>
      </trkpt>
      <trkpt lat="44.991" lon="3.80406">
        <ele>933</ele>
        <time>2021-03-13T19:29:00+01:00</time>
      </trkpt>
      <trkpt lat="44.99089" lon="3.80384">
        <ele>933</ele>
        <time>2021-03-13T19:29:05+01:00</time>
      </trkpt>
      <trkpt lat="44.9908" lon="3.80354">
        <ele>934</ele>
        <time>2021-03-13T19:29:10+01:00</time>
      </trkpt>
      <trkpt lat="44.99076" lon="3.80321">
        <ele>934</ele>
        <time>2021-03-13T19:29:15+01:00</time>
      </trkpt>
      <trkpt lat="44.9907" lon="3.80303">
        <ele>935</ele>
        <time>2021-03-13T19:29:20+01:00</time>
      </trkpt>
      <trkpt lat="44.99047" lon="3.80263">
        <ele>936</ele>
        <time>2021-03-13T19:29:25+01:00</time>
      </trkpt>
      <trkpt lat="44.99044" lon="3.80254">
        <ele>936</ele>
        <time>2021-03-13T19:29:30+01:00</time>
      </trkpt>
      <trkpt lat="44.99041" lon="3.80233">
        <ele>937</ele>
        <time>2021-03-13T19:29:35+01:00</time>
      </trkpt>
      <trkpt lat="44.99046" lon="3.80223">
        <ele>937</ele>
        <time>2021-03-13T19:29:40+01:00</time>
      </trkpt>
      <trkpt lat="44.99058" lon="3.802">
        <ele>938</ele>
        <time>2021-03-13T19:29:45+01:00</time>
      </trkpt>
      <trkpt lat="44.99069" lon="3.80159">
        <ele>939</ele>
        <time>2021-03-13T19:29:50+01:00</time>
      </trkpt>
      <trkpt lat="44.99073" lon="3.80137">
        <ele>941</ele>
        <time>2021-03-13T19:29:55+01:00</time>
      </trkpt>
      <trkpt lat="44.99071" lon="3.80118">
        <ele>942</ele>
        <time>2021-03-13T19:30:00+01:00</time>
      </trkpt>
      <trkpt lat="44.99072" lon="3.80099">
        <ele>943</ele>
        <time>2021-03-13T19:30:05+01:00</time>
      </trkpt>
      <trkpt lat="44.99077" lon="3.80083">
        <ele>944</ele>
        <time>2021-03-13T19:30:10+01:00</time>
      </trkpt>
      <trkpt lat="44.99062" lon="3.80064">
        <ele>945</ele>
        <time>2021-03-13T19:30:15+01:00</time>
      </trkpt>
      <trkpt lat="44.9905" lon="3.80048">
        <ele>945</ele>
        <time>2021-03-13T19:30:20+01:00</time>
      </trkpt>
      <trkpt lat="44.99044" lon="3.80043">
        <ele>945</ele>
        <time>2021-03-13T19:30:25+01:00</time>
      </trkpt>
      <trkpt lat="44.99034" lon="3.8004">
        <ele>945</ele>
        <time>2021-03-13T19:30:30+01:00</time>
      </trkpt>
      <trkpt lat="44.99026" lon="3.8004">
        <ele>946</ele>
        <time>2021-03-13T19:30:35+01:00</time>
      </trkpt>
      <trkpt lat="44.99023" lon="3.8001">
        <ele>946</ele>
        <time>2021-03-13T19:30:40+01:00</time>
      </trkpt>
      <trkpt lat="44.99019" lon="3.79963">
        <ele>947</ele>
        <time>2021-03-13T19:30:45+01:00</time>
      </trkpt>
      <trkpt lat="44.99017" lon="3.79937">
        <ele>947</ele>
        <time>2021-03-13T19:30:50+01:00</time>
      </trkpt>
      <trkpt lat="44.99008" lon="3.79902">
        <ele>947</ele>
        <time>2021-03-13T19:30:55+01:00</time>
      </trkpt>
      <trkpt lat="44.98998" lon="3.7985">
        <ele>949</ele>
        <time>2021-03-13T19:31:00+01:00</time>
      </trkpt>
      <trkpt lat="44.98998" lon="3.79822">
        <ele>950</ele>
        <time>2021-03-13T19:31:05+01:00</time>
      </trkpt>
      <trkpt lat="44.98997" lon="3.79792">
        <ele>950</ele>
        <time>2021-03-13T19:31:10+01:00</time>
      </trkpt>
      <trkpt lat="44.98984" lon="3.79739">
        <ele>951</ele>
        <time>2021-03-13T19:31:15+01:00</time>
      </trkpt>
      <trkpt lat="44.98966" lon="3.79687">
        <ele>951</ele>
        <time>2021-03-13T19:31:20+01:00</time>
      </trkpt>
      <trkpt lat="44.98959" lon="3.79677">
        <ele>951</ele>
        <time>2021-03-13T19:31:25+01:00</time>
      </trkpt>
      <trkpt lat="44.98952" lon="3.79672">
        <ele>951</ele>
        <time>2021-03-13T19:31:30+01:00</time>
      </trkpt>
      <trkpt lat="44.98937" lon="3.79631">
        <ele>951</ele>
        <time>2021-03-13T19:31:35+01:00</time>
      </trkpt>
      <trkpt lat="44.98918" lon="3.79573">
        <ele>953</ele>
        <time>2021-03-13T19:31:40+01:00</time>
      </trkpt>
      <trkpt lat="44.98898" lon="3.79509">
        <ele>955</ele>
        <time>2021-03-13T19:31:45+01:00</time>
      </trkpt>
      <trkpt lat="44.98889" lon="3.79488">
        <ele>956</ele>
        <time>2021-03-13T19:31:50+01:00</time>
      </trkpt>
      <trkpt lat="44.98871" lon="3.79445">
        <ele>957</ele>
        <time>2021-03-13T19:31:55+01:00</time>
      </trkpt>
      <trkpt lat="44.98861" lon="3.79419">
        <ele>957</ele>
        <time>2021-03-13T19:32:00+01:00</time>
      </trkpt>
      <trkpt lat="44.9885" lon="3.79394">
        <ele>958</ele>
        <time>2021-03-13T19:32:05+01:00</time>
      </trkpt>
      <trkpt lat="44.9885" lon="3.79394">
        <ele>958</ele>
        <time>2021-03-13T19:32:10+01:00</time>
      </trkpt>
      <trkpt lat="44.98844" lon="3.79373">
        <ele>959</ele>
        <time>2021-03-13T19:32:15+01:00</time>
      </trkpt>
      <trkpt lat="44.98836" lon="3.79325">
        <ele>961</ele>
        <time>2021-03-13T19:32:20+01:00</time>
      </trkpt>
      <trkpt lat="44.9883" lon="3.79306">
        <ele>962</ele>
        <time>2021-03-13T19:32:25+01:00</time>
      </trkpt>
      <trkpt lat="44.9882" lon="3.79299">
        <ele>962</ele>
        <time>2021-03-13T19:32:30+01:00</time>
      </trkpt>
      <trkpt lat="44.98759" lon="3.79304">
        <ele>961</ele>
        <time>2021-03-13T19:32:35+01:00</time>
      </trkpt>
      <trkpt lat="44.98747" lon="3.79301">
        <ele>961</ele>
        <time>2021-03-13T19:32:40+01:00</time>
      </trkpt>
      <trkpt lat="44.98728" lon="3.79289">
        <ele>962</ele>
        <time>2021-03-13T19:32:45+01:00</time>
      </trkpt>
      <trkpt lat="44.98695" lon="3.79257">
        <ele>964</ele>
        <time>2021-03-13T19:32:50+01:00</time>
      </trkpt>
      <trkpt lat="44.98666" lon="3.79226">
        <ele>965</ele>
        <time>2021-03-13T19:32:55+01:00</time>
      </trkpt>
      <trkpt lat="44.98627" lon="3.79196">
        <ele>966</ele>
        <time>2021-03-13T19:33:00+01:00</time>
      </trkpt>
      <trkpt lat="44.986" lon="3.79172">
        <ele>965</ele>
        <time>2021-03-13T19:33:05+01:00</time>
      </trkpt>
      <trkpt lat="44.98591" lon="3.7916">
        <ele>966</ele>
        <time>2021-03-13T19:33:10+01:00</time>
      </trkpt>
      <trkpt lat="44.98577" lon="3.79153">
        <ele>966</ele>
        <time>2021-03-13T19:33:15+01:00</time>
      </trkpt>
      <trkpt lat="44.98564" lon="3.7914">
        <ele>966</ele>
        <time>2021-03-13T19:33:20+01:00</time>
      </trkpt>
      <trkpt lat="44.98543" lon="3.79105">
        <ele>967</ele>
        <time>2021-03-13T19:33:25+01:00</time>
      </trkpt>
      <trkpt lat="44.9854" lon="3.791">
        <ele>968</ele>
        <time>2021-03-13T19:33:30+01:00</time>
      </trkpt>
      <trkpt lat="44.98543" lon="3.79098">
        <ele>968</ele>
        <time>2021-03-13T19:33:35+01:00</time>
      </trkpt>
      <trkpt lat="44.98554" lon="3.79085">
        <ele>968</ele>
        <time>2021-03-13T19:33:40+01:00</time>
      </trkpt>
      <trkpt lat="44.98564" lon="3.79062">
        <ele>969</ele>
        <time>2021-03-13T19:33:45+01:00</time>
      </trkpt>
      <trkpt lat="44.98565" lon="3.79045">
        <ele>970</ele>
        <time>2021-03-13T19:33:50+01:00</time>
      </trkpt>
      <trkpt lat="44.98551" lon="3.78963">
        <ele>974</ele>
        <time>2021-03-13T19:33:55+01:00</time>
      </trkpt>
      <trkpt lat="44.98544" lon="3.78917">
        <ele>976</ele>
        <time>2021-03-13T19:34:00+01:00</time>
      </trkpt>
      <trkpt lat="44.98534" lon="3.78875">
        <ele>977</ele>
        <time>2021-03-13T19:34:05+01:00</time>
      </trkpt>
      <trkpt lat="44.98536" lon="3.7885">
        <ele>978</ele>
        <time>2021-03-13T19:34:10+01:00</time>
      </trkpt>
      <trkpt lat="44.98554" lon="3.78793">
        <ele>979</ele>
        <time>2021-03-13T19:34:15+01:00</time>
      </trkpt>
      <trkpt lat="44.98557" lon="3.78782">
        <ele>980</ele>
        <time>2021-03-13T19:34:20+01:00</time>
      </trkpt>
      <trkpt lat="44.98558" lon="3.78764">
        <ele>980</ele>
        <time>2021-03-13T19:34:25+01:00</time>
      </trkpt>
      <trkpt lat="44.98561" lon="3.78745">
        <ele>981</ele>
        <time>2021-03-13T19:34:30+01:00</time>
      </trkpt>
      <trkpt lat="44.98563" lon="3.78735">
        <ele>981</ele>
        <time>2021-03-13T19:34:35+01:00</time>
      </trkpt>
      <trkpt lat="44.98566" lon="3.78725">
        <ele>981</ele>
        <time>2021-03-13T19:34:40+01:00</time>
      </trkpt>
      <trkpt lat="44.98541" lon="3.78641">
        <ele>983</ele>
        <time>2021-03-13T19:34:45+01:00</time>
      </trkpt>
      <trkpt lat="44.98496" lon="3.78593">
        <ele>985</ele>
        <time>2021-03-13T19:34:50+01:00</time>
      </trkpt>
      <trkpt lat="44.98454" lon="3.78484">
        <ele>988</ele>
        <time>2021-03-13T19:34:55+01:00</time>
      </trkpt>
      <trkpt lat="44.98406" lon="3.78419">
        <ele>989</ele>
        <time>2021-03-13T19:35:00+01:00</time>
      </trkpt>
      <trkpt lat="44.98368" lon="3.78339">
        <ele>989</ele>
        <time>2021-03-13T19:35:05+01:00</time>
      </trkpt>
      <trkpt lat="44.9835" lon="3.78288">
        <ele>990</ele>
        <time>2021-03-13T19:35:10+01:00</time>
      </trkpt>
      <trkpt lat="44.98315" lon="3.7812">
        <ele>994</ele>
        <time>2021-03-13T19:35:15+01:00</time>
      </trkpt>
      <trkpt lat="44.98302" lon="3.78077">
        <ele>995</ele>
        <time>2021-03-13T19:35:20+01:00</time>
      </trkpt>
      <trkpt lat="44.98274" lon="3.7802">
        <ele>996</ele>
        <time>2021-03-13T19:35:25+01:00</time>
      </trkpt>
      <trkpt lat="44.98266" lon="3.77973">
        <ele>997</ele>
        <time>2021-03-13T19:35:30+01:00</time>
      </trkpt>
      <trkpt lat="44.98264" lon="3.77933">
        <ele>998</ele>
        <time>2021-03-13T19:35:35+01:00</time>
      </trkpt>
      <trkpt lat="44.98251" lon="3.77878">
        <ele>999</ele>
        <time>2021-03-13T19:35:40+01:00</time>
      </trkpt>
      <trkpt lat="44.98245" lon="3.77804">
        <ele>1001</ele>
        <time>2021-03-13T19:35:45+01:00</time>
      </trkpt>
      <trkpt lat="44.98225" lon="3.77718">
        <ele>1003</ele>
        <time>2021-03-13T19:35:50+01:00</time>
      </trkpt>
      <trkpt lat="44.98215" lon="3.77669">
        <ele>1004</ele>
        <time>2021-03-13T19:35:55+01:00</time>
      </trkpt>
      <trkpt lat="44.98218" lon="3.776">
        <ele>1006</ele>
        <time>2021-03-13T19:36:00+01:00</time>
      </trkpt>
      <trkpt lat="44.98215" lon="3.77574">
        <ele>1006</ele>
        <time>2021-03-13T19:36:05+01:00</time>
      </trkpt>
      <trkpt lat="44.98202" lon="3.77542">
        <ele>1007</ele>
        <time>2021-03-13T19:36:10+01:00</time>
      </trkpt>
      <trkpt lat="44.98181" lon="3.77432">
        <ele>1009</ele>
        <time>2021-03-13T19:36:15+01:00</time>
      </trkpt>
      <trkpt lat="44.9818" lon="3.77335">
        <ele>1009</ele>
        <time>2021-03-13T19:36:20+01:00</time>
      </trkpt>
      <trkpt lat="44.98179" lon="3.77319">
        <ele>1009</ele>
        <time>2021-03-13T19:36:25+01:00</time>
      </trkpt>
      <trkpt lat="44.98171" lon="3.77251">
        <ele>1010</ele>
        <time>2021-03-13T19:36:30+01:00</time>
      </trkpt>
      <trkpt lat="44.98172" lon="3.7718">
        <ele>1013</ele>
        <time>2021-03-13T19:36:35+01:00</time>
      </trkpt>
      <trkpt lat="44.98176" lon="3.77133">
        <ele>1015</ele>
        <time>2021-03-13T19:36:40+01:00</time>
      </trkpt>
      <trkpt lat="44.98175" lon="3.77124">
        <ele>1015</ele>
        <time>2021-03-13T19:36:45+01:00</time>
      </trkpt>
      <trkpt lat="44.98183" lon="3.77067">
        <ele>1016</ele>
        <time>2021-03-13T19:36:50+01:00</time>
      </trkpt>
      <trkpt lat="44.98192" lon="3.77001">
        <ele>1018</ele>
        <time>2021-03-13T19:36:55+01:00</time>
      </trkpt>
      <trkpt lat="44.98192" lon="3.76942">
        <ele>1020</ele>
        <time>2021-03-13T19:37:00+01:00</time>
      </trkpt>
      <trkpt lat="44.98188" lon="3.76893">
        <ele>1021</ele>
        <time>2021-03-13T19:37:05+01:00</time>
      </trkpt>
      <trkpt lat="44.98197" lon="3.76841">
        <ele>1023</ele>
        <time>2021-03-13T19:37:10+01:00</time>
      </trkpt>
      <trkpt lat="44.98204" lon="3.76786">
        <ele>1025</ele>
        <time>2021-03-13T19:37:15+01:00</time>
      </trkpt>
      <trkpt lat="44.98212" lon="3.76701">
        <ele>1027</ele>
        <time>2021-03-13T19:37:20+01:00</time>
      </trkpt>
      <trkpt lat="44.98212" lon="3.76663">
        <ele>1027</ele>
        <time>2021-03-13T19:37:25+01:00</time>
      </trkpt>
      <trkpt lat="44.98212" lon="3.76663">
        <ele>1027</ele>
        <time>2021-03-13T19:37:30+01:00</time>
      </trkpt>
      <trkpt lat="44.982" lon="3.76557">
        <ele>1032</ele>
        <time>2021-03-13T19:37:35+01:00</time>
      </trkpt>
      <trkpt lat="44.98199" lon="3.76533">
        <ele>1033</ele>
        <time>2021-03-13T19:37:40+01:00</time>
      </trkpt>
      <trkpt lat="44.98202" lon="3.76531">
        <ele>1033</ele>
        <time>2021-03-13T19:37:45+01:00</time>
      </trkpt>
      <trkpt lat="44.98257" lon="3.76481">
        <ele>1035</ele>
        <time>2021-03-13T19:37:50+01:00</time>
      </trkpt>
      <trkpt lat="44.98287" lon="3.76449">
        <ele>1036</ele>
        <time>2021-03-13T19:37:55+01:00</time>
      </trkpt>
      <trkpt lat="44.98294" lon="3.76431">
        <ele>1036</ele>
        <time>2021-03-13T19:38:00+01:00</time>
      </trkpt>
      <trkpt lat="44.98297" lon="3.76422">
        <ele>1036</ele>
        <time>2021-03-13T19:38:05+01:00</time>
      </trkpt>
      <trkpt lat="44.98297" lon="3.76422">
        <ele>1036</ele>
        <time>2021-03-13T19:38:10+01:00</time>
      </trkpt>
      <trkpt lat="44.98313" lon="3.76372">
        <ele>1037</ele>
        <time>2021-03-13T19:38:15+01:00</time>
      </trkpt>
      <trkpt lat="44.9832" lon="3.76356">
        <ele>1038</ele>
        <time>2021-03-13T19:38:20+01:00</time>
      </trkpt>
      <trkpt lat="44.98309" lon="3.76322">
        <ele>1038</ele>
        <time>2021-03-13T19:38:25+01:00</time>
      </trkpt>
      <trkpt lat="44.98298" lon="3.76312">
        <ele>1039</ele>
        <time>2021-03-13T19:38:30+01:00</time>
      </trkpt>
      <trkpt lat="44.98268" lon="3.76301">
        <ele>1039</ele>
        <time>2021-03-13T19:38:35+01:00</time>
      </trkpt>
      <trkpt lat="44.982" lon="3.76281">
        <ele>1041</ele>
        <time>2021-03-13T19:38:40+01:00</time>
      </trkpt>
      <trkpt lat="44.9819" lon="3.76276">
        <ele>1041</ele>
        <time>2021-03-13T19:38:45+01:00</time>
      </trkpt>
      <trkpt lat="44.98186" lon="3.76271">
        <ele>1041</ele>
        <time>2021-03-13T19:38:50+01:00</time>
      </trkpt>
      <trkpt lat="44.98174" lon="3.76244">
        <ele>1042</ele>
        <time>2021-03-13T19:38:55+01:00</time>
      </trkpt>
      <trkpt lat="44.98166" lon="3.76195">
        <ele>1043</ele>
        <time>2021-03-13T19:39:00+01:00</time>
      </trkpt>
      <trkpt lat="44.98167" lon="3.76145">
        <ele>1043</ele>
        <time>2021-03-13T19:39:05+01:00</time>
      </trkpt>
      <trkpt lat="44.98164" lon="3.76119">
        <ele>1044</ele>
        <time>2021-03-13T19:39:10+01:00</time>
      </trkpt>
      <trkpt lat="44.98154" lon="3.76105">
        <ele>1044</ele>
        <time>2021-03-13T19:39:15+01:00</time>
      </trkpt>
      <trkpt lat="44.98128" lon="3.76091">
        <ele>1045</ele>
        <time>2021-03-13T19:39:20+01:00</time>
      </trkpt>
      <trkpt lat="44.98119" lon="3.76083">
        <ele>1046</ele>
        <time>2021-03-13T19:39:25+01:00</time>
      </trkpt>
      <trkpt lat="44.98116" lon="3.76067">
        <ele>1046</ele>
        <time>2021-03-13T19:39:30+01:00</time>
      </trkpt>
      <trkpt lat="44.98117" lon="3.76056">
        <ele>1047</ele>
        <time>2021-03-13T19:39:35+01:00</time>
      </trkpt>
      <trkpt lat="44.98132" lon="3.76007">
        <ele>1048</ele>
        <time>2021-03-13T19:39:40+01:00</time>
      </trkpt>
      <trkpt lat="44.98156" lon="3.75934">
        <ele>1048</ele>
        <time>2021-03-13T19:39:45+01:00</time>
      </trkpt>
      <trkpt lat="44.98156" lon="3.75934">
        <ele>1048</ele>
        <time>2021-03-13T19:39:50+01:00</time>
      </trkpt>
      <trkpt lat="44.98195" lon="3.75837">
        <ele>1049</ele>
        <time>2021-03-13T19:39:55+01:00</time>
      </trkpt>
      <trkpt lat="44.98221" lon="3.75749">
        <ele>1050</ele>
        <time>2021-03-13T19:40:00+01:00</time>
      </trkpt>
      <trkpt lat="44.9832" lon="3.75411">
        <ele>1061</ele>
        <time>2021-03-13T19:40:05+01:00</time>
      </trkpt>
      <trkpt lat="44.98331" lon="3.7538">
        <ele>1063</ele>
        <time>2021-03-13T19:40:10+01:00</time>
      </trkpt>
      <trkpt lat="44.98348" lon="3.75339">
        <ele>1065</ele>
        <time>2021-03-13T19:40:15+01:00</time>
      </trkpt>
      <trkpt lat="44.9835" lon="3.75336">
        <ele>1065</ele>
        <time>2021-03-13T19:40:20+01:00</time>
      </trkpt>
      <trkpt lat="44.9835" lon="3.75336">
        <ele>1065</ele>
        <time>2021-03-13T19:40:25+01:00</time>
      </trkpt>
      <trkpt lat="44.98367" lon="3.75307">
        <ele>1065</ele>
        <time>2021-03-13T19:40:30+01:00</time>
      </trkpt>
      <trkpt lat="44.98381" lon="3.75288">
        <ele>1065</ele>
        <time>2021-03-13T19:40:35+01:00</time>
      </trkpt>
      <trkpt lat="44.984" lon="3.75262">
        <ele>1065</ele>
        <time>2021-03-13T19:40:40+01:00</time>
      </trkpt>
      <trkpt lat="44.98434" lon="3.75186">
        <ele>1067</ele>
        <time>2021-03-13T19:40:45+01:00</time>
      </trkpt>
      <trkpt lat="44.98515" lon="3.75001">
        <ele>1071</ele>
        <time>2021-03-13T19:40:50+01:00</time>
      </trkpt>
      <trkpt lat="44.98524" lon="3.7498">
        <ele>1072</ele>
        <time>2021-03-13T19:40:55+01:00</time>
      </trkpt>
      <trkpt lat="44.98524" lon="3.7498">
        <ele>1072</ele>
        <time>2021-03-13T19:41:00+01:00</time>
      </trkpt>
      <trkpt lat="44.9854" lon="3.7494">
        <ele>1073</ele>
        <time>2021-03-13T19:41:05+01:00</time>
      </trkpt>
      <trkpt lat="44.98548" lon="3.74914">
        <ele>1074</ele>
        <time>2021-03-13T19:41:10+01:00</time>
      </trkpt>
      <trkpt lat="44.98563" lon="3.74842">
        <ele>1076</ele>
        <time>2021-03-13T19:41:15+01:00</time>
      </trkpt>
      <trkpt lat="44.98577" lon="3.74791">
        <ele>1079</ele>
        <time>2021-03-13T19:41:20+01:00</time>
      </trkpt>
      <trkpt lat="44.98601" lon="3.74727">
        <ele>1083</ele>
        <time>2021-03-13T19:41:25+01:00</time>
      </trkpt>
      <trkpt lat="44.9861" lon="3.7471">
        <ele>1085</ele>
        <time>2021-03-13T19:41:30+01:00</time>
      </trkpt>
      <trkpt lat="44.9864" lon="3.74672">
        <ele>1087</ele>
        <time>2021-03-13T19:41:35+01:00</time>
      </trkpt>
      <trkpt lat="44.9864" lon="3.74672">
        <ele>1087</ele>
        <time>2021-03-13T19:41:40+01:00</time>
      </trkpt>
      <trkpt lat="44.98698" lon="3.74614">
        <ele>1091</ele>
        <time>2021-03-13T19:41:45+01:00</time>
      </trkpt>
      <trkpt lat="44.98701" lon="3.74612">
        <ele>1091</ele>
        <time>2021-03-13T19:41:50+01:00</time>
      </trkpt>
      <trkpt lat="44.98718" lon="3.74609">
        <ele>1090</ele>
        <time>2021-03-13T19:41:55+01:00</time>
      </trkpt>
      <trkpt lat="44.9874" lon="3.74607">
        <ele>1088</ele>
        <time>2021-03-13T19:42:00+01:00</time>
      </trkpt>
      <trkpt lat="44.98748" lon="3.74599">
        <ele>1088</ele>
        <time>2021-03-13T19:42:05+01:00</time>
      </trkpt>
      <trkpt lat="44.98755" lon="3.74597">
        <ele>1088</ele>
        <time>2021-03-13T19:42:10+01:00</time>
      </trkpt>
      <trkpt lat="44.98791" lon="3.74614">
        <ele>1086</ele>
        <time>2021-03-13T19:42:15+01:00</time>
      </trkpt>
      <trkpt lat="44.98803" lon="3.7462">
        <ele>1085</ele>
        <time>2021-03-13T19:42:20+01:00</time>
      </trkpt>
      <trkpt lat="44.98823" lon="3.74637">
        <ele>1084</ele>
        <time>2021-03-13T19:42:25+01:00</time>
      </trkpt>
      <trkpt lat="44.98854" lon="3.74665">
        <ele>1085</ele>
        <time>2021-03-13T19:42:30+01:00</time>
      </trkpt>
      <trkpt lat="44.98859" lon="3.74666">
        <ele>1085</ele>
        <time>2021-03-13T19:42:35+01:00</time>
      </trkpt>
      <trkpt lat="44.98867" lon="3.74663">
        <ele>1086</ele>
        <time>2021-03-13T19:42:40+01:00</time>
      </trkpt>
      <trkpt lat="44.98868" lon="3.74662">
        <ele>1086</ele>
        <time>2021-03-13T19:42:45+01:00</time>
      </trkpt>
      <trkpt lat="44.98868" lon="3.74662">
        <ele>1086</ele>
        <time>2021-03-13T19:42:50+01:00</time>
      </trkpt>
      <trkpt lat="44.98874" lon="3.74648">
        <ele>1087</ele>
        <time>2021-03-13T19:42:55+01:00</time>
      </trkpt>
      <trkpt lat="44.98876" lon="3.74626">
        <ele>1088</ele>
        <time>2021-03-13T19:43:00+01:00</time>
      </trkpt>
      <trkpt lat="44.98884" lon="3.74617">
        <ele>1089</ele>
        <time>2021-03-13T19:43:05+01:00</time>
      </trkpt>
      <trkpt lat="44.98926" lon="3.74563">
        <ele>1093</ele>
        <time>2021-03-13T19:43:10+01:00</time>
      </trkpt>
      <trkpt lat="44.98957" lon="3.74516">
        <ele>1096</ele>
        <time>2021-03-13T19:43:15+01:00</time>
      </trkpt>
      <trkpt lat="44.98967" lon="3.74478">
        <ele>1098</ele>
        <time>2021-03-13T19:43:20+01:00</time>
      </trkpt>
      <trkpt lat="44.98978" lon="3.74443">
        <ele>1100</ele>
        <time>2021-03-13T19:43:25+01:00</time>
      </trkpt>
      <trkpt lat="44.98988" lon="3.74421">
        <ele>1101</ele>
        <time>2021-03-13T19:43:30+01:00</time>
      </trkpt>
      <trkpt lat="44.98994" lon="3.74412">
        <ele>1102</ele>
        <time>2021-03-13T19:43:35+01:00</time>
      </trkpt>
      <trkpt lat="44.99013" lon="3.74396">
        <ele>1104</ele>
        <time>2021-03-13T19:43:40+01:00</time>
      </trkpt>
      <trkpt lat="44.99028" lon="3.74384">
        <ele>1105</ele>
        <time>2021-03-13T19:43:45+01:00</time>
      </trkpt>
      <trkpt lat="44.99045" lon="3.74358">
        <ele>1106</ele>
        <time>2021-03-13T19:43:50+01:00</time>
      </trkpt>
      <trkpt lat="44.99045" lon="3.74358">
        <ele>1106</ele>
        <time>2021-03-13T19:43:55+01:00</time>
      </trkpt>
      <trkpt lat="44.99083" lon="3.74294">
        <ele>1109</ele>
        <time>2021-03-13T19:44:00+01:00</time>
      </trkpt>
      <trkpt lat="44.99096" lon="3.74274">
        <ele>1109</ele>
        <time>2021-03-13T19:44:05+01:00</time>
      </trkpt>
      <trkpt lat="44.99088" lon="3.74267">
        <ele>1109</ele>
        <time>2021-03-13T19:44:10+01:00</time>
      </trkpt>
      <trkpt lat="44.99059" lon="3.7425">
        <ele>1110</ele>
        <time>2021-03-13T19:44:15+01:00</time>
      </trkpt>
      <trkpt lat="44.99017" lon="3.74226">
        <ele>1112</ele>
        <time>2021-03-13T19:44:20+01:00</time>
      </trkpt>
      <trkpt lat="44.98984" lon="3.74195">
        <ele>1115</ele>
        <time>2021-03-13T19:44:25+01:00</time>
      </trkpt>
      <trkpt lat="44.98978" lon="3.74188">
        <ele>1115</ele>
        <time>2021-03-13T19:44:30+01:00</time>
      </trkpt>
      <trkpt lat="44.98981" lon="3.74174">
        <ele>1117</ele>
        <time>2021-03-13T19:44:35+01:00</time>
      </trkpt>
      <trkpt lat="44.98992" lon="3.74145">
        <ele>1118</ele>
        <time>2021-03-13T19:44:40+01:00</time>
      </trkpt>
      <trkpt lat="44.99019" lon="3.74113">
        <ele>1118</ele>
        <time>2021-03-13T19:44:45+01:00</time>
      </trkpt>
      <trkpt lat="44.99052" lon="3.74076">
        <ele>1119</ele>
        <time>2021-03-13T19:44:50+01:00</time>
      </trkpt>
      <trkpt lat="44.99069" lon="3.74053">
        <ele>1120</ele>
        <time>2021-03-13T19:44:55+01:00</time>
      </trkpt>
      <trkpt lat="44.99079" lon="3.74027">
        <ele>1122</ele>
        <time>2021-03-13T19:45:00+01:00</time>
      </trkpt>
      <trkpt lat="44.99083" lon="3.74013">
        <ele>1124</ele>
        <time>2021-03-13T19:45:05+01:00</time>
      </trkpt>
      <trkpt lat="44.99083" lon="3.74013">
        <ele>1124</ele>
        <time>2021-03-13T19:45:10+01:00</time>
      </trkpt>
      <trkpt lat="44.99096" lon="3.73979">
        <ele>1125</ele>
        <time>2021-03-13T19:45:15+01:00</time>
      </trkpt>
      <trkpt lat="44.99115" lon="3.7394">
        <ele>1125</ele>
        <time>2021-03-13T19:45:20+01:00</time>
      </trkpt>
      <trkpt lat="44.99136" lon="3.7391">
        <ele>1125</ele>
        <time>2021-03-13T19:45:25+01:00</time>
      </trkpt>
      <trkpt lat="44.99149" lon="3.73882">
        <ele>1125</ele>
        <time>2021-03-13T19:45:30+01:00</time>
      </trkpt>
      <trkpt lat="44.9917" lon="3.73834">
        <ele>1125</ele>
        <time>2021-03-13T19:45:35+01:00</time>
      </trkpt>
      <trkpt lat="44.99179" lon="3.73801">
        <ele>1124</ele>
        <time>2021-03-13T19:45:40+01:00</time>
      </trkpt>
      <trkpt lat="44.99187" lon="3.7378">
        <ele>1123</ele>
        <time>2021-03-13T19:45:45+01:00</time>
      </trkpt>
      <trkpt lat="44.99197" lon="3.73761">
        <ele>1123</ele>
        <time>2021-03-13T19:45:50+01:00</time>
      </trkpt>
      <trkpt lat="44.99198" lon="3.73744">
        <ele>1123</ele>
        <time>2021-03-13T19:45:55+01:00</time>
      </trkpt>
      <trkpt lat="44.99198" lon="3.7372">
        <ele>1123</ele>
        <time>2021-03-13T19:46:00+01:00</time>
      </trkpt>
      <trkpt lat="44.9921" lon="3.7367">
        <ele>1123</ele>
        <time>2021-03-13T19:46:05+01:00</time>
      </trkpt>
      <trkpt lat="44.99248" lon="3.73572">
        <ele>1122</ele>
        <time>2021-03-13T19:46:10+01:00</time>
      </trkpt>
      <trkpt lat="44.99264" lon="3.7354">
        <ele>1120</ele>
        <time>2021-03-13T19:46:15+01:00</time>
      </trkpt>
      <trkpt lat="44.99273" lon="3.73525">
        <ele>1120</ele>
        <time>2021-03-13T19:46:20+01:00</time>
      </trkpt>
      <trkpt lat="44.99288" lon="3.73493">
        <ele>1119</ele>
        <time>2021-03-13T19:46:25+01:00</time>
      </trkpt>
      <trkpt lat="44.99288" lon="3.73493">
        <ele>1119</ele>
        <time>2021-03-13T19:46:30+01:00</time>
      </trkpt>
      <trkpt lat="44.99301" lon="3.73458">
        <ele>1119</ele>
        <time>2021-03-13T19:46:35+01:00</time>
      </trkpt>
      <trkpt lat="44.99312" lon="3.73436">
        <ele>1118</ele>
        <time>2021-03-13T19:46:40+01:00</time>
      </trkpt>
      <trkpt lat="44.99334" lon="3.73412">
        <ele>1117</ele>
        <time>2021-03-13T19:46:45+01:00</time>
      </trkpt>
      <trkpt lat="44.99347" lon="3.73394">
        <ele>1117</ele>
        <time>2021-03-13T19:46:50+01:00</time>
      </trkpt>
      <trkpt lat="44.99363" lon="3.73362">
        <ele>1118</ele>
        <time>2021-03-13T19:46:55+01:00</time>
      </trkpt>
      <trkpt lat="44.99363" lon="3.73351">
        <ele>1118</ele>
        <time>2021-03-13T19:47:00+01:00</time>
      </trkpt>
      <trkpt lat="44.99348" lon="3.7332">
        <ele>1117</ele>
        <time>2021-03-13T19:47:05+01:00</time>
      </trkpt>
      <trkpt lat="44.99329" lon="3.73266">
        <ele>1117</ele>
        <time>2021-03-13T19:47:10+01:00</time>
      </trkpt>
      <trkpt lat="44.99321" lon="3.73225">
        <ele>1118</ele>
        <time>2021-03-13T19:47:15+01:00</time>
      </trkpt>
      <trkpt lat="44.99382" lon="3.73206">
        <ele>1121</ele>
        <time>2021-03-13T19:47:20+01:00</time>
      </trkpt>
      <trkpt lat="44.994" lon="3.73194">
        <ele>1123</ele>
        <time>2021-03-13T19:47:25+01:00</time>
      </trkpt>
      <trkpt lat="44.99409" lon="3.73185">
        <ele>1123</ele>
        <time>2021-03-13T19:47:30+01:00</time>
      </trkpt>
      <trkpt lat="44.99416" lon="3.73174">
        <ele>1124</ele>
        <time>2021-03-13T19:47:35+01:00</time>
      </trkpt>
      <trkpt lat="44.99453" lon="3.7311">
        <ele>1127</ele>
        <time>2021-03-13T19:47:40+01:00</time>
      </trkpt>
      <trkpt lat="44.99479" lon="3.73069">
        <ele>1129</ele>
        <time>2021-03-13T19:47:45+01:00</time>
      </trkpt>
      <trkpt lat="44.99479" lon="3.73069">
        <ele>1129</ele>
        <time>2021-03-13T19:47:50+01:00</time>
      </trkpt>
      <trkpt lat="44.99509" lon="3.73019">
        <ele>1133</ele>
        <time>2021-03-13T19:47:55+01:00</time>
      </trkpt>
      <trkpt lat="44.99541" lon="3.72959">
        <ele>1139</ele>
        <time>2021-03-13T19:48:00+01:00</time>
      </trkpt>
      <trkpt lat="44.99549" lon="3.7294">
        <ele>1141</ele>
        <time>2021-03-13T19:48:05+01:00</time>
      </trkpt>
      <trkpt lat="44.9955" lon="3.72931">
        <ele>1141</ele>
        <time>2021-03-13T19:48:10+01:00</time>
      </trkpt>
      <trkpt lat="44.99562" lon="3.72928">
        <ele>1142</ele>
        <time>2021-03-13T19:48:15+01:00</time>
      </trkpt>
      <trkpt lat="44.99585" lon="3.72917">
        <ele>1145</ele>
        <time>2021-03-13T19:48:20+01:00</time>
      </trkpt>
      <trkpt lat="44.99604" lon="3.72904">
        <ele>1148</ele>
        <time>2021-03-13T19:48:25+01:00</time>
      </trkpt>
      <trkpt lat="44.99631" lon="3.72872">
        <ele>1152</ele>
        <time>2021-03-13T19:48:30+01:00</time>
      </trkpt>
      <trkpt lat="44.99644" lon="3.72848">
        <ele>1154</ele>
        <time>2021-03-13T19:48:35+01:00</time>
      </trkpt>
      <trkpt lat="44.9965" lon="3.72831">
        <ele>1155</ele>
        <time>2021-03-13T19:48:40+01:00</time>
      </trkpt>
      <trkpt lat="44.99664" lon="3.72803">
        <ele>1159</ele>
        <time>2021-03-13T19:48:45+01:00</time>
      </trkpt>
      <trkpt lat="44.99678" lon="3.72778">
        <ele>1164</ele>
        <time>2021-03-13T19:48:50+01:00</time>
      </trkpt>
      <trkpt lat="44.99684" lon="3.72761">
        <ele>1166</ele>
        <time>2021-03-13T19:48:55+01:00</time>
      </trkpt>
      <trkpt lat="44.99686" lon="3.72743">
        <ele>1168</ele>
        <time>2021-03-13T19:49:00+01:00</time>
      </trkpt>
      <trkpt lat="44.99685" lon="3.72724">
        <ele>1169</ele>
        <time>2021-03-13T19:49:05+01:00</time>
      </trkpt>
      <trkpt lat="44.99679" lon="3.72694">
        <ele>1170</ele>
        <time>2021-03-13T19:49:10+01:00</time>
      </trkpt>
      <trkpt lat="44.99677" lon="3.72656">
        <ele>1172</ele>
        <time>2021-03-13T19:49:15+01:00</time>
      </trkpt>
      <trkpt lat="44.99663" lon="3.72621">
        <ele>1173</ele>
        <time>2021-03-13T19:49:20+01:00</time>
      </trkpt>
      <trkpt lat="44.99661" lon="3.72606">
        <ele>1174</ele>
        <time>2021-03-13T19:49:25+01:00</time>
      </trkpt>
      <trkpt lat="44.99663" lon="3.72592">
        <ele>1176</ele>
        <time>2021-03-13T19:49:30+01:00</time>
      </trkpt>
      <trkpt lat="44.99676" lon="3.7257">
        <ele>1179</ele>
        <time>2021-03-13T19:49:35+01:00</time>
      </trkpt>
      <trkpt lat="44.99688" lon="3.72551">
        <ele>1183</ele>
        <time>2021-03-13T19:49:40+01:00</time>
      </trkpt>
      <trkpt lat="44.99703" lon="3.72534">
        <ele>1187</ele>
        <time>2021-03-13T19:49:45+01:00</time>
      </trkpt>
      <trkpt lat="44.9972" lon="3.72519">
        <ele>1191</ele>
        <time>2021-03-13T19:49:50+01:00</time>
      </trkpt>
      <trkpt lat="44.99727" lon="3.72482">
        <ele>1195</ele>
        <time>2021-03-13T19:49:55+01:00</time>
      </trkpt>
      <trkpt lat="44.99727" lon="3.72445">
        <ele>1199</ele>
        <time>2021-03-13T19:50:00+01:00</time>
      </trkpt>
      <trkpt lat="44.99713" lon="3.7237">
        <ele>1203</ele>
        <time>2021-03-13T19:50:05+01:00</time>
      </trkpt>
      <trkpt lat="44.99715" lon="3.72331">
        <ele>1206</ele>
        <time>2021-03-13T19:50:10+01:00</time>
      </trkpt>
      <trkpt lat="44.99714" lon="3.723">
        <ele>1207</ele>
        <time>2021-03-13T19:50:15+01:00</time>
      </trkpt>
      <trkpt lat="44.99706" lon="3.7226">
        <ele>1210</ele>
        <time>2021-03-13T19:50:20+01:00</time>
      </trkpt>
      <trkpt lat="44.99729" lon="3.72237">
        <ele>1210</ele>
        <time>2021-03-13T19:50:25+01:00</time>
      </trkpt>
      <trkpt lat="44.99744" lon="3.72215">
        <ele>1210</ele>
        <time>2021-03-13T19:50:30+01:00</time>
      </trkpt>
      <trkpt lat="44.99765" lon="3.72226">
        <ele>1210</ele>
        <time>2021-03-13T19:50:35+01:00</time>
      </trkpt>
      <trkpt lat="44.99771" lon="3.7222">
        <ele>1211</ele>
        <time>2021-03-13T19:50:40+01:00</time>
      </trkpt>
      <trkpt lat="44.9977" lon="3.72191">
        <ele>1212</ele>
        <time>2021-03-13T19:50:45+01:00</time>
      </trkpt>
      <trkpt lat="44.99773" lon="3.72153">
        <ele>1213</ele>
        <time>2021-03-13T19:50:50+01:00</time>
      </trkpt>
      <trkpt lat="44.99782" lon="3.72121">
        <ele>1213</ele>
        <time>2021-03-13T19:50:55+01:00</time>
      </trkpt>
      <trkpt lat="44.99806" lon="3.72062">
        <ele>1213</ele>
        <time>2021-03-13T19:51:00+01:00</time>
      </trkpt>
      <trkpt lat="44.99832" lon="3.72014">
        <ele>1211</ele>
        <time>2021-03-13T19:51:05+01:00</time>
      </trkpt>
      <trkpt lat="44.99841" lon="3.71994">
        <ele>1211</ele>
        <time>2021-03-13T19:51:10+01:00</time>
      </trkpt>
      <trkpt lat="44.99843" lon="3.71981">
        <ele>1211</ele>
        <time>2021-03-13T19:51:15+01:00</time>
      </trkpt>
      <trkpt lat="44.99839" lon="3.71967">
        <ele>1210</ele>
        <time>2021-03-13T19:51:20+01:00</time>
      </trkpt>
      <trkpt lat="44.99826" lon="3.71949">
        <ele>1209</ele>
        <time>2021-03-13T19:51:25+01:00</time>
      </trkpt>
      <trkpt lat="44.9981" lon="3.71934">
        <ele>1209</ele>
        <time>2021-03-13T19:51:30+01:00</time>
      </trkpt>
      <trkpt lat="44.99793" lon="3.71914">
        <ele>1209</ele>
        <time>2021-03-13T19:51:35+01:00</time>
      </trkpt>
      <trkpt lat="44.99771" lon="3.71869">
        <ele>1210</ele>
        <time>2021-03-13T19:51:40+01:00</time>
      </trkpt>
      <trkpt lat="44.99752" lon="3.71797">
        <ele>1210</ele>
        <time>2021-03-13T19:51:45+01:00</time>
      </trkpt>
      <trkpt lat="44.99745" lon="3.71755">
        <ele>1211</ele>
        <time>2021-03-13T19:51:50+01:00</time>
      </trkpt>
      <trkpt lat="44.99745" lon="3.71729">
        <ele>1212</ele>
        <time>2021-03-13T19:51:55+01:00</time>
      </trkpt>
      <trkpt lat="44.99751" lon="3.71686">
        <ele>1213</ele>
        <time>2021-03-13T19:52:00+01:00</time>
      </trkpt>
      <trkpt lat="44.99734" lon="3.71681">
        <ele>1213</ele>
        <time>2021-03-13T19:52:05+01:00</time>
      </trkpt>
      <trkpt lat="44.99712" lon="3.71674">
        <ele>1213</ele>
        <time>2021-03-13T19:52:10+01:00</time>
      </trkpt>
      <trkpt lat="44.99712" lon="3.71674">
        <ele>1213</ele>
        <time>2021-03-13T19:52:15+01:00</time>
      </trkpt>
      <trkpt lat="44.99673" lon="3.71657">
        <ele>1212</ele>
        <time>2021-03-13T19:52:20+01:00</time>
      </trkpt>
      <trkpt lat="44.99605" lon="3.71632">
        <ele>1208</ele>
        <time>2021-03-13T19:52:25+01:00</time>
      </trkpt>
      <trkpt lat="44.9959" lon="3.71628">
        <ele>1207</ele>
        <time>2021-03-13T19:52:30+01:00</time>
      </trkpt>
      <trkpt lat="44.99581" lon="3.7161">
        <ele>1205</ele>
        <time>2021-03-13T19:52:35+01:00</time>
      </trkpt>
      <trkpt lat="44.99567" lon="3.71585">
        <ele>1206</ele>
        <time>2021-03-13T19:52:40+01:00</time>
      </trkpt>
      <trkpt lat="44.99539" lon="3.71517">
        <ele>1203</ele>
        <time>2021-03-13T19:52:45+01:00</time>
      </trkpt>
      <trkpt lat="44.99524" lon="3.71471">
        <ele>1199</ele>
        <time>2021-03-13T19:52:50+01:00</time>
      </trkpt>
      <trkpt lat="44.99512" lon="3.71427">
        <ele>1194</ele>
        <time>2021-03-13T19:52:55+01:00</time>
      </trkpt>
      <trkpt lat="44.99503" lon="3.71397">
        <ele>1190</ele>
        <time>2021-03-13T19:53:00+01:00</time>
      </trkpt>
      <trkpt lat="44.99495" lon="3.71361">
        <ele>1184</ele>
        <time>2021-03-13T19:53:05+01:00</time>
      </trkpt>
      <trkpt lat="44.99495" lon="3.71361">
        <ele>1184</ele>
        <time>2021-03-13T19:53:10+01:00</time>
      </trkpt>
      <trkpt lat="44.99488" lon="3.71315">
        <ele>1178</ele>
        <time>2021-03-13T19:53:15+01:00</time>
      </trkpt>
      <trkpt lat="44.99481" lon="3.71286">
        <ele>1176</ele>
        <time>2021-03-13T19:53:20+01:00</time>
      </trkpt>
      <trkpt lat="44.99472" lon="3.71239">
        <ele>1171</ele>
        <time>2021-03-13T19:53:25+01:00</time>
      </trkpt>
      <trkpt lat="44.99454" lon="3.71193">
        <ele>1168</ele>
        <time>2021-03-13T19:53:30+01:00</time>
      </trkpt>
      <trkpt lat="44.99423" lon="3.71096">
        <ele>1161</ele>
        <time>2021-03-13T19:53:35+01:00</time>
      </trkpt>
      <trkpt lat="44.99403" lon="3.71065">
        <ele>1159</ele>
        <time>2021-03-13T19:53:40+01:00</time>
      </trkpt>
      <trkpt lat="44.99392" lon="3.71046">
        <ele>1158</ele>
        <time>2021-03-13T19:53:45+01:00</time>
      </trkpt>
      <trkpt lat="44.99384" lon="3.71038">
        <ele>1157</ele>
        <time>2021-03-13T19:53:50+01:00</time>
      </trkpt>
      <trkpt lat="44.99365" lon="3.71009">
        <ele>1154</ele>
        <time>2021-03-13T19:53:55+01:00</time>
      </trkpt>
      <trkpt lat="44.99339" lon="3.70964">
        <ele>1151</ele>
        <time>2021-03-13T19:54:00+01:00</time>
      </trkpt>
      <trkpt lat="44.993" lon="3.7088">
        <ele>1147</ele>
        <time>2021-03-13T19:54:05+01:00</time>
      </trkpt>
      <trkpt lat="44.9929" lon="3.70866">
        <ele>1147</ele>
        <time>2021-03-13T19:54:10+01:00</time>
      </trkpt>
      <trkpt lat="44.99247" lon="3.70809">
        <ele>1142</ele>
        <time>2021-03-13T19:54:15+01:00</time>
      </trkpt>
      <trkpt lat="44.99218" lon="3.70769">
        <ele>1137</ele>
        <time>2021-03-13T19:54:20+01:00</time>
      </trkpt>
      <trkpt lat="44.992" lon="3.70751">
        <ele>1135</ele>
        <time>2021-03-13T19:54:25+01:00</time>
      </trkpt>
      <trkpt lat="44.992" lon="3.70751">
        <ele>1135</ele>
        <time>2021-03-13T19:54:30+01:00</time>
      </trkpt>
      <trkpt lat="44.99144" lon="3.70701">
        <ele>1130</ele>
        <time>2021-03-13T19:54:35+01:00</time>
      </trkpt>
      <trkpt lat="44.99122" lon="3.70679">
        <ele>1129</ele>
        <time>2021-03-13T19:54:40+01:00</time>
      </trkpt>
      <trkpt lat="44.99106" lon="3.70653">
        <ele>1127</ele>
        <time>2021-03-13T19:54:45+01:00</time>
      </trkpt>
      <trkpt lat="44.99089" lon="3.70601">
        <ele>1122</ele>
        <time>2021-03-13T19:54:50+01:00</time>
      </trkpt>
      <trkpt lat="44.99083" lon="3.70573">
        <ele>1120</ele>
        <time>2021-03-13T19:54:55+01:00</time>
      </trkpt>
      <trkpt lat="44.99078" lon="3.70521">
        <ele>1116</ele>
        <time>2021-03-13T19:55:00+01:00</time>
      </trkpt>
      <trkpt lat="44.99072" lon="3.70475">
        <ele>1111</ele>
        <time>2021-03-13T19:55:05+01:00</time>
      </trkpt>
      <trkpt lat="44.99062" lon="3.70427">
        <ele>1105</ele>
        <time>2021-03-13T19:55:10+01:00</time>
      </trkpt>
      <trkpt lat="44.99045" lon="3.70375">
        <ele>1102</ele>
        <time>2021-03-13T19:55:15+01:00</time>
      </trkpt>
      <trkpt lat="44.99039" lon="3.70344">
        <ele>1099</ele>
        <time>2021-03-13T19:55:20+01:00</time>
      </trkpt>
      <trkpt lat="44.9904" lon="3.70326">
        <ele>1098</ele>
        <time>2021-03-13T19:55:25+01:00</time>
      </trkpt>
      <trkpt lat="44.99044" lon="3.70307">
        <ele>1096</ele>
        <time>2021-03-13T19:55:30+01:00</time>
      </trkpt>
      <trkpt lat="44.99051" lon="3.70271">
        <ele>1093</ele>
        <time>2021-03-13T19:55:35+01:00</time>
      </trkpt>
      <trkpt lat="44.9905" lon="3.70256">
        <ele>1092</ele>
        <time>2021-03-13T19:55:40+01:00</time>
      </trkpt>
      <trkpt lat="44.99047" lon="3.70241">
        <ele>1091</ele>
        <time>2021-03-13T19:55:45+01:00</time>
      </trkpt>
      <trkpt lat="44.99041" lon="3.70226">
        <ele>1090</ele>
        <time>2021-03-13T19:55:50+01:00</time>
      </trkpt>
      <trkpt lat="44.99022" lon="3.70195">
        <ele>1088</ele>
        <time>2021-03-13T19:55:55+01:00</time>
      </trkpt>
      <trkpt lat="44.99001" lon="3.70144">
        <ele>1084</ele>
        <time>2021-03-13T19:56:00+01:00</time>
      </trkpt>
      <trkpt lat="44.98977" lon="3.70091">
        <ele>1080</ele>
        <time>2021-03-13T19:56:05+01:00</time>
      </trkpt>
      <trkpt lat="44.98977" lon="3.70091">
        <ele>1080</ele>
        <time>2021-03-13T19:56:10+01:00</time>
      </trkpt>
      <trkpt lat="44.98959" lon="3.70056">
        <ele>1078</ele>
        <time>2021-03-13T19:56:15+01:00</time>
      </trkpt>
      <trkpt lat="44.98945" lon="3.70018">
        <ele>1076</ele>
        <time>2021-03-13T19:56:20+01:00</time>
      </trkpt>
      <trkpt lat="44.98929" lon="3.69989">
        <ele>1074</ele>
        <time>2021-03-13T19:56:25+01:00</time>
      </trkpt>
      <trkpt lat="44.9891" lon="3.69962">
        <ele>1072</ele>
        <time>2021-03-13T19:56:30+01:00</time>
      </trkpt>
      <trkpt lat="44.98879" lon="3.69906">
        <ele>1066</ele>
        <time>2021-03-13T19:56:35+01:00</time>
      </trkpt>
      <trkpt lat="44.98838" lon="3.69861">
        <ele>1061</ele>
        <time>2021-03-13T19:56:40+01:00</time>
      </trkpt>
      <trkpt lat="44.98804" lon="3.69832">
        <ele>1057</ele>
        <time>2021-03-13T19:56:45+01:00</time>
      </trkpt>
      <trkpt lat="44.98792" lon="3.69825">
        <ele>1055</ele>
        <time>2021-03-13T19:56:50+01:00</time>
      </trkpt>
      <trkpt lat="44.98784" lon="3.69818">
        <ele>1054</ele>
        <time>2021-03-13T19:56:55+01:00</time>
      </trkpt>
      <trkpt lat="44.98779" lon="3.69811">
        <ele>1054</ele>
        <time>2021-03-13T19:57:00+01:00</time>
      </trkpt>
      <trkpt lat="44.98777" lon="3.69799">
        <ele>1053</ele>
        <time>2021-03-13T19:57:05+01:00</time>
      </trkpt>
      <trkpt lat="44.98779" lon="3.69761">
        <ele>1050</ele>
        <time>2021-03-13T19:57:10+01:00</time>
      </trkpt>
      <trkpt lat="44.98785" lon="3.69612">
        <ele>1042</ele>
        <time>2021-03-13T19:57:15+01:00</time>
      </trkpt>
      <trkpt lat="44.98785" lon="3.69595">
        <ele>1041</ele>
        <time>2021-03-13T19:57:20+01:00</time>
      </trkpt>
      <trkpt lat="44.98785" lon="3.69595">
        <ele>1041</ele>
        <time>2021-03-13T19:57:25+01:00</time>
      </trkpt>
      <trkpt lat="44.98785" lon="3.69521">
        <ele>1040</ele>
        <time>2021-03-13T19:57:30+01:00</time>
      </trkpt>
      <trkpt lat="44.9877" lon="3.69468">
        <ele>1037</ele>
        <time>2021-03-13T19:57:35+01:00</time>
      </trkpt>
      <trkpt lat="44.98752" lon="3.69413">
        <ele>1034</ele>
        <time>2021-03-13T19:57:40+01:00</time>
      </trkpt>
      <trkpt lat="44.98747" lon="3.6935">
        <ele>1030</ele>
        <time>2021-03-13T19:57:45+01:00</time>
      </trkpt>
      <trkpt lat="44.98747" lon="3.69335">
        <ele>1030</ele>
        <time>2021-03-13T19:57:50+01:00</time>
      </trkpt>
      <trkpt lat="44.98737" lon="3.69334">
        <ele>1028</ele>
        <time>2021-03-13T19:57:55+01:00</time>
      </trkpt>
      <trkpt lat="44.9873" lon="3.69315">
        <ele>1027</ele>
        <time>2021-03-13T19:58:00+01:00</time>
      </trkpt>
      <trkpt lat="44.98721" lon="3.69227">
        <ele>1025</ele>
        <time>2021-03-13T19:58:05+01:00</time>
      </trkpt>
      <trkpt lat="44.98719" lon="3.69189">
        <ele>1024</ele>
        <time>2021-03-13T19:58:10+01:00</time>
      </trkpt>
      <trkpt lat="44.98728" lon="3.69132">
        <ele>1025</ele>
        <time>2021-03-13T19:58:15+01:00</time>
      </trkpt>
      <trkpt lat="44.98732" lon="3.69062">
        <ele>1024</ele>
        <time>2021-03-13T19:58:20+01:00</time>
      </trkpt>
      <trkpt lat="44.98733" lon="3.68913">
        <ele>1014</ele>
        <time>2021-03-13T19:58:25+01:00</time>
      </trkpt>
      <trkpt lat="44.98733" lon="3.68909">
        <ele>1014</ele>
        <time>2021-03-13T19:58:30+01:00</time>
      </trkpt>
      <trkpt lat="44.98733" lon="3.68909">
        <ele>1014</ele>
        <time>2021-03-13T19:58:35+01:00</time>
      </trkpt>
      <trkpt lat="44.98734" lon="3.68859">
        <ele>1012</ele>
        <time>2021-03-13T19:58:40+01:00</time>
      </trkpt>
      <trkpt lat="44.98729" lon="3.68809">
        <ele>1010</ele>
        <time>2021-03-13T19:58:45+01:00</time>
      </trkpt>
      <trkpt lat="44.98729" lon="3.68791">
        <ele>1009</ele>
        <time>2021-03-13T19:58:50+01:00</time>
      </trkpt>
      <trkpt lat="44.98731" lon="3.68772">
        <ele>1009</ele>
        <time>2021-03-13T19:58:55+01:00</time>
      </trkpt>
      <trkpt lat="44.9874" lon="3.68736">
        <ele>1008</ele>
        <time>2021-03-13T19:59:00+01:00</time>
      </trkpt>
      <trkpt lat="44.98757" lon="3.6871">
        <ele>1005</ele>
        <time>2021-03-13T19:59:05+01:00</time>
      </trkpt>
      <trkpt lat="44.98778" lon="3.68684">
        <ele>1001</ele>
        <time>2021-03-13T19:59:10+01:00</time>
      </trkpt>
      <trkpt lat="44.98794" lon="3.68651">
        <ele>997</ele>
        <time>2021-03-13T19:59:15+01:00</time>
      </trkpt>
      <trkpt lat="44.98811" lon="3.68624">
        <ele>993</ele>
        <time>2021-03-13T19:59:20+01:00</time>
      </trkpt>
      <trkpt lat="44.98844" lon="3.68597">
        <ele>987</ele>
        <time>2021-03-13T19:59:25+01:00</time>
      </trkpt>
      <trkpt lat="44.98873" lon="3.6857">
        <ele>982</ele>
        <time>2021-03-13T19:59:30+01:00</time>
      </trkpt>
      <trkpt lat="44.98905" lon="3.68537">
        <ele>975</ele>
        <time>2021-03-13T19:59:35+01:00</time>
      </trkpt>
      <trkpt lat="44.98905" lon="3.68537">
        <ele>975</ele>
        <time>2021-03-13T19:59:40+01:00</time>
      </trkpt>
      <trkpt lat="44.98916" lon="3.68527">
        <ele>973</ele>
        <time>2021-03-13T19:59:45+01:00</time>
      </trkpt>
      <trkpt lat="44.98936" lon="3.68522">
        <ele>970</ele>
        <time>2021-03-13T19:59:50+01:00</time>
      </trkpt>
      <trkpt lat="44.98971" lon="3.68516">
        <ele>965</ele>
        <time>2021-03-13T19:59:55+01:00</time>
      </trkpt>
      <trkpt lat="44.9902" lon="3.68486">
        <ele>954</ele>
        <time>2021-03-13T20:00:00+01:00</time>
      </trkpt>
      <trkpt lat="44.99025" lon="3.68487">
        <ele>953</ele>
        <time>2021-03-13T20:00:05+01:00</time>
      </trkpt>
      <trkpt lat="44.99141" lon="3.68578">
        <ele>947</ele>
        <time>2021-03-13T20:00:10+01:00</time>
      </trkpt>
      <trkpt lat="44.99183" lon="3.68584">
        <ele>944</ele>
        <time>2021-03-13T20:00:15+01:00</time>
      </trkpt>
      <trkpt lat="44.99228" lon="3.68466">
        <ele>919</ele>
        <time>2021-03-13T20:00:20+01:00</time>
      </trkpt>
      <trkpt lat="44.99229" lon="3.68391">
        <ele>902</ele>
        <time>2021-03-13T20:00:25+01:00</time>
      </trkpt>
      <trkpt lat="44.9927" lon="3.68368">
        <ele>898</ele>
        <time>2021-03-13T20:00:30+01:00</time>
      </trkpt>
      <trkpt lat="44.99271" lon="3.68359">
        <ele>897</ele>
        <time>2021-03-13T20:00:35+01:00</time>
      </trkpt>
      <trkpt lat="44.99282" lon="3.68363">
        <ele>899</ele>
        <time>2021-03-13T20:00:40+01:00</time>
      </trkpt>
      <trkpt lat="44.99288" lon="3.68358">
        <ele>899</ele>
        <time>2021-03-13T20:00:45+01:00</time>
      </trkpt>
      <trkpt lat="44.99284" lon="3.68333">
        <ele>895</ele>
        <time>2021-03-13T20:00:50+01:00</time>
      </trkpt>
      <trkpt lat="44.99271" lon="3.68291">
        <ele>888</ele>
        <time>2021-03-13T20:00:55+01:00</time>
      </trkpt>
      <trkpt lat="44.99263" lon="3.68275">
        <ele>884</ele>
        <time>2021-03-13T20:01:00+01:00</time>
      </trkpt>
      <trkpt lat="44.99251" lon="3.68264">
        <ele>881</ele>
        <time>2021-03-13T20:01:05+01:00</time>
      </trkpt>
      <trkpt lat="44.99225" lon="3.6827">
        <ele>880</ele>
        <time>2021-03-13T20:01:10+01:00</time>
      </trkpt>
      <trkpt lat="44.99211" lon="3.68266">
        <ele>879</ele>
        <time>2021-03-13T20:01:15+01:00</time>
      </trkpt>
      <trkpt lat="44.99198" lon="3.68257">
        <ele>877</ele>
        <time>2021-03-13T20:01:20+01:00</time>
      </trkpt>
      <trkpt lat="44.99185" lon="3.68245">
        <ele>877</ele>
        <time>2021-03-13T20:01:25+01:00</time>
      </trkpt>
      <trkpt lat="44.99164" lon="3.68226">
        <ele>880</ele>
        <time>2021-03-13T20:01:30+01:00</time>
      </trkpt>
      <trkpt lat="44.99123" lon="3.68194">
        <ele>882</ele>
        <time>2021-03-13T20:01:35+01:00</time>
      </trkpt>
      <trkpt lat="44.99078" lon="3.68166">
        <ele>878</ele>
        <time>2021-03-13T20:01:40+01:00</time>
      </trkpt>
      <trkpt lat="44.99067" lon="3.68155">
        <ele>879</ele>
        <time>2021-03-13T20:01:45+01:00</time>
      </trkpt>
      <trkpt lat="44.99043" lon="3.68116">
        <ele>880</ele>
        <time>2021-03-13T20:01:50+01:00</time>
      </trkpt>
      <trkpt lat="44.99034" lon="3.68098">
        <ele>881</ele>
        <time>2021-03-13T20:01:55+01:00</time>
      </trkpt>
      <trkpt lat="44.99033" lon="3.68093">
        <ele>881</ele>
        <time>2021-03-13T20:02:00+01:00</time>
      </trkpt>
      <trkpt lat="44.99033" lon="3.68088">
        <ele>882</ele>
        <time>2021-03-13T20:02:05+01:00</time>
      </trkpt>
      <trkpt lat="44.99012" lon="3.68062">
        <ele>880</ele>
        <time>2021-03-13T20:02:10+01:00</time>
      </trkpt>
      <trkpt lat="44.98961" lon="3.67994">
        <ele>876</ele>
        <time>2021-03-13T20:02:15+01:00</time>
      </trkpt>
      <trkpt lat="44.98945" lon="3.67968">
        <ele>874</ele>
        <time>2021-03-13T20:02:20+01:00</time>
      </trkpt>
      <trkpt lat="44.98942" lon="3.67951">
        <ele>875</ele>
        <time>2021-03-13T20:02:25+01:00</time>
      </trkpt>
      <trkpt lat="44.98957" lon="3.67944">
        <ele>877</ele>
        <time>2021-03-13T20:02:30+01:00</time>
      </trkpt>
    </trkseg>
  </trk>
</gpx>